<?xml version="1.0" encoding="UTF-8" standalone="no" ?>
<gpx xmlns="http://www.topografix.com/GPX/1/1" xmlns:xsi="http://www.w3.org/2001/XMLSchema-instance" xsi:schemaLocation="http://www.topografix.com/GPX/1/1 http://www.topografix.com/GPX/1/1/gpx.xsd" version="1.1" creator="VisuGPX - https://www.visugpx.com">
  <metadata>
    <name>Footing dans le Bois de Clamart</name>
    <desc><![CDATA[Boucle sympa avec pas mal de dénivelée]]></desc>
  </metadata>
  <wpt lat="38.85555" lon="-94.79902">
    <ele>3.01</ele>
    <name><![CDATA[GARMIN]]></name>
  </wpt>
  <wpt lat="50.98288" lon="-1.4639">
    <ele>3.01</ele>
    <name><![CDATA[GRMEUR]]></name>
  </wpt>
  <wpt lat="25.06178" lon="121.64027">
    <ele>3.01</ele>
    <name><![CDATA[GRMTWN]]></name>
  </wpt>
  <wpt lat="43.57746" lon="1.45163">
    <ele>97.22</ele>
    <name><![CDATA[MAP]]></name>
  </wpt>
  <trk>
    <name><![CDATA[ACTIVE LOG: 09 JAN 2011 08:38]]></name>
    <trkseg>
      <trkpt lat="48.81658" lon="2.25552">
        <ele>43.4</ele>
        <time>2011-01-09T07:38:59Z</time>
      </trkpt>
      <trkpt lat="48.81646" lon="2.2556">
        <ele>45.8</ele>
        <time>2011-01-09T07:39:04Z</time>
      </trkpt>
      <trkpt lat="48.81629" lon="2.25565">
        <ele>49.65</ele>
        <time>2011-01-09T07:39:13Z</time>
      </trkpt>
      <trkpt lat="48.81627" lon="2.25565">
        <ele>51.09</ele>
        <time>2011-01-09T07:39:14Z</time>
      </trkpt>
      <trkpt lat="48.81624" lon="2.25566">
        <ele>47.24</ele>
        <time>2011-01-09T07:39:16Z</time>
      </trkpt>
      <trkpt lat="48.81623" lon="2.25566">
        <ele>50.61</ele>
        <time>2011-01-09T07:39:17Z</time>
      </trkpt>
      <trkpt lat="48.81621" lon="2.25567">
        <ele>44.84</ele>
        <time>2011-01-09T07:39:18Z</time>
      </trkpt>
      <trkpt lat="48.8162" lon="2.25568">
        <ele>53.01</ele>
        <time>2011-01-09T07:39:19Z</time>
      </trkpt>
      <trkpt lat="48.81615" lon="2.25571">
        <ele>50.13</ele>
        <time>2011-01-09T07:39:21Z</time>
      </trkpt>
      <trkpt lat="48.81608" lon="2.25577">
        <ele>45.8</ele>
        <time>2011-01-09T07:39:25Z</time>
      </trkpt>
      <trkpt lat="48.81606" lon="2.25578">
        <ele>49.16</ele>
        <time>2011-01-09T07:39:26Z</time>
      </trkpt>
      <trkpt lat="48.81594" lon="2.25585">
        <ele>52.53</ele>
        <time>2011-01-09T07:39:32Z</time>
      </trkpt>
      <trkpt lat="48.81591" lon="2.25588">
        <ele>52.05</ele>
        <time>2011-01-09T07:39:34Z</time>
      </trkpt>
      <trkpt lat="48.81585" lon="2.25594">
        <ele>55.41</ele>
        <time>2011-01-09T07:39:38Z</time>
      </trkpt>
      <trkpt lat="48.81583" lon="2.25596">
        <ele>50.13</ele>
        <time>2011-01-09T07:39:39Z</time>
      </trkpt>
      <trkpt lat="48.8158" lon="2.25598">
        <ele>53.01</ele>
        <time>2011-01-09T07:39:41Z</time>
      </trkpt>
      <trkpt lat="48.81573" lon="2.25607">
        <ele>51.09</ele>
        <time>2011-01-09T07:39:46Z</time>
      </trkpt>
      <trkpt lat="48.81572" lon="2.25609">
        <ele>55.41</ele>
        <time>2011-01-09T07:39:47Z</time>
      </trkpt>
      <trkpt lat="48.8157" lon="2.25611">
        <ele>51.57</ele>
        <time>2011-01-09T07:39:48Z</time>
      </trkpt>
      <trkpt lat="48.81568" lon="2.25624">
        <ele>54.45</ele>
        <time>2011-01-09T07:39:54Z</time>
      </trkpt>
      <trkpt lat="48.81568" lon="2.25625">
        <ele>56.86</ele>
        <time>2011-01-09T07:39:55Z</time>
      </trkpt>
      <trkpt lat="48.81567" lon="2.25629">
        <ele>49.65</ele>
        <time>2011-01-09T07:39:57Z</time>
      </trkpt>
      <trkpt lat="48.81568" lon="2.25631">
        <ele>53.49</ele>
        <time>2011-01-09T07:39:58Z</time>
      </trkpt>
      <trkpt lat="48.81569" lon="2.25636">
        <ele>55.41</ele>
        <time>2011-01-09T07:40:00Z</time>
      </trkpt>
      <trkpt lat="48.81568" lon="2.25641">
        <ele>51.09</ele>
        <time>2011-01-09T07:40:02Z</time>
      </trkpt>
      <trkpt lat="48.81569" lon="2.25644">
        <ele>53.97</ele>
        <time>2011-01-09T07:40:03Z</time>
      </trkpt>
      <trkpt lat="48.81568" lon="2.2565">
        <ele>54.45</ele>
        <time>2011-01-09T07:40:05Z</time>
      </trkpt>
      <trkpt lat="48.8157" lon="2.25654">
        <ele>52.05</ele>
        <time>2011-01-09T07:40:07Z</time>
      </trkpt>
      <trkpt lat="48.81572" lon="2.25658">
        <ele>53.97</ele>
        <time>2011-01-09T07:40:09Z</time>
      </trkpt>
      <trkpt lat="48.81572" lon="2.2566">
        <ele>55.41</ele>
        <time>2011-01-09T07:40:10Z</time>
      </trkpt>
      <trkpt lat="48.81566" lon="2.25674">
        <ele>59.26</ele>
        <time>2011-01-09T07:40:14Z</time>
      </trkpt>
      <trkpt lat="48.81564" lon="2.2568">
        <ele>53.97</ele>
        <time>2011-01-09T07:40:15Z</time>
      </trkpt>
      <trkpt lat="48.81544" lon="2.2572">
        <ele>58.3</ele>
        <time>2011-01-09T07:40:24Z</time>
      </trkpt>
      <trkpt lat="48.81541" lon="2.25724">
        <ele>53.97</ele>
        <time>2011-01-09T07:40:26Z</time>
      </trkpt>
      <trkpt lat="48.81539" lon="2.25726">
        <ele>54.93</ele>
        <time>2011-01-09T07:40:27Z</time>
      </trkpt>
      <trkpt lat="48.81527" lon="2.25746">
        <ele>57.82</ele>
        <time>2011-01-09T07:40:34Z</time>
      </trkpt>
      <trkpt lat="48.81499" lon="2.2576">
        <ele>57.34</ele>
        <time>2011-01-09T07:40:45Z</time>
      </trkpt>
      <trkpt lat="48.81497" lon="2.25759">
        <ele>54.45</ele>
        <time>2011-01-09T07:40:46Z</time>
      </trkpt>
      <trkpt lat="48.81491" lon="2.25758">
        <ele>57.34</ele>
        <time>2011-01-09T07:40:48Z</time>
      </trkpt>
      <trkpt lat="48.81478" lon="2.25754">
        <ele>55.89</ele>
        <time>2011-01-09T07:40:54Z</time>
      </trkpt>
      <trkpt lat="48.81454" lon="2.25752">
        <ele>59.74</ele>
        <time>2011-01-09T07:41:06Z</time>
      </trkpt>
      <trkpt lat="48.81446" lon="2.2575">
        <ele>59.26</ele>
        <time>2011-01-09T07:41:10Z</time>
      </trkpt>
      <trkpt lat="48.81434" lon="2.25755">
        <ele>56.86</ele>
        <time>2011-01-09T07:41:16Z</time>
      </trkpt>
      <trkpt lat="48.81419" lon="2.25756">
        <ele>61.66</ele>
        <time>2011-01-09T07:41:22Z</time>
      </trkpt>
      <trkpt lat="48.81413" lon="2.25758">
        <ele>57.82</ele>
        <time>2011-01-09T07:41:25Z</time>
      </trkpt>
      <trkpt lat="48.8141" lon="2.25757">
        <ele>61.66</ele>
        <time>2011-01-09T07:41:26Z</time>
      </trkpt>
      <trkpt lat="48.81401" lon="2.25758">
        <ele>57.82</ele>
        <time>2011-01-09T07:41:29Z</time>
      </trkpt>
      <trkpt lat="48.81387" lon="2.25764">
        <ele>61.18</ele>
        <time>2011-01-09T07:41:37Z</time>
      </trkpt>
      <trkpt lat="48.81385" lon="2.25764">
        <ele>60.22</ele>
        <time>2011-01-09T07:41:38Z</time>
      </trkpt>
      <trkpt lat="48.81367" lon="2.25766">
        <ele>59.74</ele>
        <time>2011-01-09T07:41:46Z</time>
      </trkpt>
      <trkpt lat="48.81353" lon="2.25765">
        <ele>58.3</ele>
        <time>2011-01-09T07:41:52Z</time>
      </trkpt>
      <trkpt lat="48.81326" lon="2.2577">
        <ele>56.86</ele>
        <time>2011-01-09T07:42:06Z</time>
      </trkpt>
      <trkpt lat="48.81323" lon="2.25771">
        <ele>59.74</ele>
        <time>2011-01-09T07:42:07Z</time>
      </trkpt>
      <trkpt lat="48.81297" lon="2.25776">
        <ele>61.18</ele>
        <time>2011-01-09T07:42:16Z</time>
      </trkpt>
      <trkpt lat="48.81262" lon="2.25786">
        <ele>62.62</ele>
        <time>2011-01-09T07:42:29Z</time>
      </trkpt>
      <trkpt lat="48.81257" lon="2.25787">
        <ele>60.22</ele>
        <time>2011-01-09T07:42:31Z</time>
      </trkpt>
      <trkpt lat="48.81253" lon="2.25787">
        <ele>62.14</ele>
        <time>2011-01-09T07:42:33Z</time>
      </trkpt>
      <trkpt lat="48.8125" lon="2.25787">
        <ele>64.07</ele>
        <time>2011-01-09T07:42:35Z</time>
      </trkpt>
      <trkpt lat="48.81245" lon="2.25789">
        <ele>61.18</ele>
        <time>2011-01-09T07:42:37Z</time>
      </trkpt>
      <trkpt lat="48.81225" lon="2.25802">
        <ele>61.18</ele>
        <time>2011-01-09T07:42:45Z</time>
      </trkpt>
      <trkpt lat="48.81222" lon="2.25803">
        <ele>60.7</ele>
        <time>2011-01-09T07:42:46Z</time>
      </trkpt>
      <trkpt lat="48.81218" lon="2.25804">
        <ele>64.07</ele>
        <time>2011-01-09T07:42:48Z</time>
      </trkpt>
      <trkpt lat="48.81216" lon="2.25804">
        <ele>63.58</ele>
        <time>2011-01-09T07:42:49Z</time>
      </trkpt>
      <trkpt lat="48.81211" lon="2.25805">
        <ele>67.91</ele>
        <time>2011-01-09T07:42:51Z</time>
      </trkpt>
      <trkpt lat="48.81185" lon="2.25805">
        <ele>61.18</ele>
        <time>2011-01-09T07:43:01Z</time>
      </trkpt>
      <trkpt lat="48.81174" lon="2.25804">
        <ele>66.47</ele>
        <time>2011-01-09T07:43:06Z</time>
      </trkpt>
      <trkpt lat="48.81172" lon="2.25803">
        <ele>64.07</ele>
        <time>2011-01-09T07:43:07Z</time>
      </trkpt>
      <trkpt lat="48.81161" lon="2.258">
        <ele>67.43</ele>
        <time>2011-01-09T07:43:13Z</time>
      </trkpt>
      <trkpt lat="48.81152" lon="2.25804">
        <ele>67.91</ele>
        <time>2011-01-09T07:43:17Z</time>
      </trkpt>
      <trkpt lat="48.81127" lon="2.25813">
        <ele>65.99</ele>
        <time>2011-01-09T07:43:28Z</time>
      </trkpt>
      <trkpt lat="48.81119" lon="2.25811">
        <ele>68.87</ele>
        <time>2011-01-09T07:43:32Z</time>
      </trkpt>
      <trkpt lat="48.81117" lon="2.25811">
        <ele>68.39</ele>
        <time>2011-01-09T07:43:33Z</time>
      </trkpt>
      <trkpt lat="48.81103" lon="2.2581">
        <ele>70.31</ele>
        <time>2011-01-09T07:43:41Z</time>
      </trkpt>
      <trkpt lat="48.81101" lon="2.2581">
        <ele>66.95</ele>
        <time>2011-01-09T07:43:42Z</time>
      </trkpt>
      <trkpt lat="48.81099" lon="2.25811">
        <ele>67.43</ele>
        <time>2011-01-09T07:43:43Z</time>
      </trkpt>
      <trkpt lat="48.81077" lon="2.2582">
        <ele>69.35</ele>
        <time>2011-01-09T07:43:53Z</time>
      </trkpt>
      <trkpt lat="48.81052" lon="2.25821">
        <ele>71.27</ele>
        <time>2011-01-09T07:44:05Z</time>
      </trkpt>
      <trkpt lat="48.8104" lon="2.25822">
        <ele>72.24</ele>
        <time>2011-01-09T07:44:10Z</time>
      </trkpt>
      <trkpt lat="48.81035" lon="2.25824">
        <ele>69.83</ele>
        <time>2011-01-09T07:44:12Z</time>
      </trkpt>
      <trkpt lat="48.81033" lon="2.25825">
        <ele>73.2</ele>
        <time>2011-01-09T07:44:13Z</time>
      </trkpt>
      <trkpt lat="48.81028" lon="2.25827">
        <ele>69.83</ele>
        <time>2011-01-09T07:44:16Z</time>
      </trkpt>
      <trkpt lat="48.8101" lon="2.25831">
        <ele>68.87</ele>
        <time>2011-01-09T07:44:27Z</time>
      </trkpt>
      <trkpt lat="48.81002" lon="2.25829">
        <ele>72.72</ele>
        <time>2011-01-09T07:44:31Z</time>
      </trkpt>
      <trkpt lat="48.8099" lon="2.25826">
        <ele>72.72</ele>
        <time>2011-01-09T07:44:35Z</time>
      </trkpt>
      <trkpt lat="48.80963" lon="2.2584">
        <ele>72.72</ele>
        <time>2011-01-09T07:44:47Z</time>
      </trkpt>
      <trkpt lat="48.80958" lon="2.25841">
        <ele>77.04</ele>
        <time>2011-01-09T07:44:49Z</time>
      </trkpt>
      <trkpt lat="48.80955" lon="2.25841">
        <ele>74.16</ele>
        <time>2011-01-09T07:44:50Z</time>
      </trkpt>
      <trkpt lat="48.80933" lon="2.25846">
        <ele>76.08</ele>
        <time>2011-01-09T07:45:02Z</time>
      </trkpt>
      <trkpt lat="48.80927" lon="2.25846">
        <ele>77.52</ele>
        <time>2011-01-09T07:45:06Z</time>
      </trkpt>
      <trkpt lat="48.80926" lon="2.25846">
        <ele>78</ele>
        <time>2011-01-09T07:45:07Z</time>
      </trkpt>
      <trkpt lat="48.8092" lon="2.25843">
        <ele>76.56</ele>
        <time>2011-01-09T07:45:10Z</time>
      </trkpt>
      <trkpt lat="48.80916" lon="2.2584">
        <ele>75.6</ele>
        <time>2011-01-09T07:45:12Z</time>
      </trkpt>
      <trkpt lat="48.80907" lon="2.2584">
        <ele>75.6</ele>
        <time>2011-01-09T07:45:16Z</time>
      </trkpt>
      <trkpt lat="48.80888" lon="2.25846">
        <ele>76.56</ele>
        <time>2011-01-09T07:45:26Z</time>
      </trkpt>
      <trkpt lat="48.80882" lon="2.25846">
        <ele>81.37</ele>
        <time>2011-01-09T07:45:29Z</time>
      </trkpt>
      <trkpt lat="48.80881" lon="2.25846">
        <ele>80.41</ele>
        <time>2011-01-09T07:45:30Z</time>
      </trkpt>
      <trkpt lat="48.80876" lon="2.25847">
        <ele>77.52</ele>
        <time>2011-01-09T07:45:32Z</time>
      </trkpt>
      <trkpt lat="48.80874" lon="2.25847">
        <ele>79.93</ele>
        <time>2011-01-09T07:45:33Z</time>
      </trkpt>
      <trkpt lat="48.80867" lon="2.25848">
        <ele>81.85</ele>
        <time>2011-01-09T07:45:36Z</time>
      </trkpt>
      <trkpt lat="48.80865" lon="2.25849">
        <ele>77.52</ele>
        <time>2011-01-09T07:45:37Z</time>
      </trkpt>
      <trkpt lat="48.80858" lon="2.25852">
        <ele>81.37</ele>
        <time>2011-01-09T07:45:41Z</time>
      </trkpt>
      <trkpt lat="48.80857" lon="2.25852">
        <ele>81.37</ele>
        <time>2011-01-09T07:45:42Z</time>
      </trkpt>
      <trkpt lat="48.8085" lon="2.25852">
        <ele>79.93</ele>
        <time>2011-01-09T07:45:45Z</time>
      </trkpt>
      <trkpt lat="48.80823" lon="2.25867">
        <ele>83.29</ele>
        <time>2011-01-09T07:45:57Z</time>
      </trkpt>
      <trkpt lat="48.80821" lon="2.25867">
        <ele>81.85</ele>
        <time>2011-01-09T07:45:58Z</time>
      </trkpt>
      <trkpt lat="48.80809" lon="2.25868">
        <ele>79.93</ele>
        <time>2011-01-09T07:46:05Z</time>
      </trkpt>
      <trkpt lat="48.80802" lon="2.2587">
        <ele>81.37</ele>
        <time>2011-01-09T07:46:09Z</time>
      </trkpt>
      <trkpt lat="48.80798" lon="2.2587">
        <ele>82.81</ele>
        <time>2011-01-09T07:46:11Z</time>
      </trkpt>
      <trkpt lat="48.80785" lon="2.25867">
        <ele>79.93</ele>
        <time>2011-01-09T07:46:18Z</time>
      </trkpt>
      <trkpt lat="48.80783" lon="2.25867">
        <ele>84.73</ele>
        <time>2011-01-09T07:46:19Z</time>
      </trkpt>
      <trkpt lat="48.8078" lon="2.25866">
        <ele>79.93</ele>
        <time>2011-01-09T07:46:20Z</time>
      </trkpt>
      <trkpt lat="48.80776" lon="2.25865">
        <ele>82.81</ele>
        <time>2011-01-09T07:46:22Z</time>
      </trkpt>
      <trkpt lat="48.80752" lon="2.2587">
        <ele>86.18</ele>
        <time>2011-01-09T07:46:34Z</time>
      </trkpt>
      <trkpt lat="48.80738" lon="2.25871">
        <ele>82.81</ele>
        <time>2011-01-09T07:46:41Z</time>
      </trkpt>
      <trkpt lat="48.80727" lon="2.25871">
        <ele>86.66</ele>
        <time>2011-01-09T07:46:46Z</time>
      </trkpt>
      <trkpt lat="48.80717" lon="2.25874">
        <ele>84.73</ele>
        <time>2011-01-09T07:46:50Z</time>
      </trkpt>
      <trkpt lat="48.80711" lon="2.25879">
        <ele>86.66</ele>
        <time>2011-01-09T07:46:53Z</time>
      </trkpt>
      <trkpt lat="48.80707" lon="2.25881">
        <ele>85.21</ele>
        <time>2011-01-09T07:46:55Z</time>
      </trkpt>
      <trkpt lat="48.80697" lon="2.25884">
        <ele>88.58</ele>
        <time>2011-01-09T07:47:00Z</time>
      </trkpt>
      <trkpt lat="48.80694" lon="2.25885">
        <ele>84.25</ele>
        <time>2011-01-09T07:47:02Z</time>
      </trkpt>
      <trkpt lat="48.80691" lon="2.25885">
        <ele>86.66</ele>
        <time>2011-01-09T07:47:04Z</time>
      </trkpt>
      <trkpt lat="48.80682" lon="2.25883">
        <ele>88.1</ele>
        <time>2011-01-09T07:47:09Z</time>
      </trkpt>
      <trkpt lat="48.80661" lon="2.25881">
        <ele>88.1</ele>
        <time>2011-01-09T07:47:18Z</time>
      </trkpt>
      <trkpt lat="48.80633" lon="2.25888">
        <ele>89.54</ele>
        <time>2011-01-09T07:47:31Z</time>
      </trkpt>
      <trkpt lat="48.80629" lon="2.25889">
        <ele>86.66</ele>
        <time>2011-01-09T07:47:33Z</time>
      </trkpt>
      <trkpt lat="48.80627" lon="2.25891">
        <ele>89.06</ele>
        <time>2011-01-09T07:47:34Z</time>
      </trkpt>
      <trkpt lat="48.80612" lon="2.25898">
        <ele>87.14</ele>
        <time>2011-01-09T07:47:42Z</time>
      </trkpt>
      <trkpt lat="48.80602" lon="2.25901">
        <ele>92.42</ele>
        <time>2011-01-09T07:47:47Z</time>
      </trkpt>
      <trkpt lat="48.806" lon="2.25901">
        <ele>89.06</ele>
        <time>2011-01-09T07:47:48Z</time>
      </trkpt>
      <trkpt lat="48.80594" lon="2.25901">
        <ele>89.06</ele>
        <time>2011-01-09T07:47:51Z</time>
      </trkpt>
      <trkpt lat="48.80581" lon="2.25903">
        <ele>90.98</ele>
        <time>2011-01-09T07:47:58Z</time>
      </trkpt>
      <trkpt lat="48.80558" lon="2.25902">
        <ele>91.94</ele>
        <time>2011-01-09T07:48:09Z</time>
      </trkpt>
      <trkpt lat="48.80536" lon="2.25885">
        <ele>92.9</ele>
        <time>2011-01-09T07:48:19Z</time>
      </trkpt>
      <trkpt lat="48.8053" lon="2.25884">
        <ele>95.79</ele>
        <time>2011-01-09T07:48:22Z</time>
      </trkpt>
      <trkpt lat="48.80528" lon="2.25883">
        <ele>93.87</ele>
        <time>2011-01-09T07:48:23Z</time>
      </trkpt>
      <trkpt lat="48.80522" lon="2.25882">
        <ele>90.98</ele>
        <time>2011-01-09T07:48:26Z</time>
      </trkpt>
      <trkpt lat="48.80518" lon="2.25881">
        <ele>94.83</ele>
        <time>2011-01-09T07:48:28Z</time>
      </trkpt>
      <trkpt lat="48.80516" lon="2.2588">
        <ele>93.39</ele>
        <time>2011-01-09T07:48:29Z</time>
      </trkpt>
      <trkpt lat="48.80499" lon="2.25872">
        <ele>95.79</ele>
        <time>2011-01-09T07:48:37Z</time>
      </trkpt>
      <trkpt lat="48.80486" lon="2.25863">
        <ele>92.9</ele>
        <time>2011-01-09T07:48:44Z</time>
      </trkpt>
      <trkpt lat="48.80475" lon="2.25853">
        <ele>94.83</ele>
        <time>2011-01-09T07:48:49Z</time>
      </trkpt>
      <trkpt lat="48.80463" lon="2.25844">
        <ele>95.79</ele>
        <time>2011-01-09T07:48:55Z</time>
      </trkpt>
      <trkpt lat="48.80461" lon="2.25842">
        <ele>95.79</ele>
        <time>2011-01-09T07:48:56Z</time>
      </trkpt>
      <trkpt lat="48.80442" lon="2.25828">
        <ele>96.75</ele>
        <time>2011-01-09T07:49:06Z</time>
      </trkpt>
      <trkpt lat="48.80438" lon="2.25824">
        <ele>100.11</ele>
        <time>2011-01-09T07:49:08Z</time>
      </trkpt>
      <trkpt lat="48.80434" lon="2.25821">
        <ele>95.79</ele>
        <time>2011-01-09T07:49:10Z</time>
      </trkpt>
      <trkpt lat="48.80432" lon="2.25819">
        <ele>96.75</ele>
        <time>2011-01-09T07:49:11Z</time>
      </trkpt>
      <trkpt lat="48.80422" lon="2.25809">
        <ele>97.71</ele>
        <time>2011-01-09T07:49:17Z</time>
      </trkpt>
      <trkpt lat="48.80416" lon="2.25799">
        <ele>101.08</ele>
        <time>2011-01-09T07:49:22Z</time>
      </trkpt>
      <trkpt lat="48.80414" lon="2.25797">
        <ele>96.75</ele>
        <time>2011-01-09T07:49:23Z</time>
      </trkpt>
      <trkpt lat="48.80392" lon="2.25775">
        <ele>96.27</ele>
        <time>2011-01-09T07:49:35Z</time>
      </trkpt>
      <trkpt lat="48.80387" lon="2.25772">
        <ele>99.15</ele>
        <time>2011-01-09T07:49:38Z</time>
      </trkpt>
      <trkpt lat="48.80368" lon="2.25754">
        <ele>97.71</ele>
        <time>2011-01-09T07:49:49Z</time>
      </trkpt>
      <trkpt lat="48.80363" lon="2.25747">
        <ele>103</ele>
        <time>2011-01-09T07:49:52Z</time>
      </trkpt>
      <trkpt lat="48.80362" lon="2.25744">
        <ele>101.08</ele>
        <time>2011-01-09T07:49:53Z</time>
      </trkpt>
      <trkpt lat="48.8036" lon="2.25742">
        <ele>102.04</ele>
        <time>2011-01-09T07:49:54Z</time>
      </trkpt>
      <trkpt lat="48.80357" lon="2.25738">
        <ele>100.6</ele>
        <time>2011-01-09T07:49:56Z</time>
      </trkpt>
      <trkpt lat="48.80352" lon="2.25729">
        <ele>99.15</ele>
        <time>2011-01-09T07:50:00Z</time>
      </trkpt>
      <trkpt lat="48.80351" lon="2.25722">
        <ele>101.56</ele>
        <time>2011-01-09T07:50:02Z</time>
      </trkpt>
      <trkpt lat="48.80349" lon="2.25682">
        <ele>104.44</ele>
        <time>2011-01-09T07:50:14Z</time>
      </trkpt>
      <trkpt lat="48.80347" lon="2.25675">
        <ele>101.08</ele>
        <time>2011-01-09T07:50:16Z</time>
      </trkpt>
      <trkpt lat="48.80344" lon="2.25669">
        <ele>102.52</ele>
        <time>2011-01-09T07:50:18Z</time>
      </trkpt>
      <trkpt lat="48.80341" lon="2.25644">
        <ele>106.84</ele>
        <time>2011-01-09T07:50:26Z</time>
      </trkpt>
      <trkpt lat="48.80341" lon="2.25641">
        <ele>99.63</ele>
        <time>2011-01-09T07:50:27Z</time>
      </trkpt>
      <trkpt lat="48.8034" lon="2.25638">
        <ele>103</ele>
        <time>2011-01-09T07:50:28Z</time>
      </trkpt>
      <trkpt lat="48.80339" lon="2.25635">
        <ele>99.63</ele>
        <time>2011-01-09T07:50:29Z</time>
      </trkpt>
      <trkpt lat="48.80339" lon="2.25621">
        <ele>102.52</ele>
        <time>2011-01-09T07:50:33Z</time>
      </trkpt>
      <trkpt lat="48.80341" lon="2.25613">
        <ele>101.56</ele>
        <time>2011-01-09T07:50:35Z</time>
      </trkpt>
      <trkpt lat="48.80345" lon="2.25594">
        <ele>102.52</ele>
        <time>2011-01-09T07:50:41Z</time>
      </trkpt>
      <trkpt lat="48.80346" lon="2.25581">
        <ele>102.52</ele>
        <time>2011-01-09T07:50:45Z</time>
      </trkpt>
      <trkpt lat="48.80347" lon="2.25573">
        <ele>101.08</ele>
        <time>2011-01-09T07:50:47Z</time>
      </trkpt>
      <trkpt lat="48.8035" lon="2.25562">
        <ele>99.63</ele>
        <time>2011-01-09T07:50:50Z</time>
      </trkpt>
      <trkpt lat="48.80358" lon="2.25543">
        <ele>99.63</ele>
        <time>2011-01-09T07:50:56Z</time>
      </trkpt>
      <trkpt lat="48.80369" lon="2.25512">
        <ele>99.63</ele>
        <time>2011-01-09T07:51:06Z</time>
      </trkpt>
      <trkpt lat="48.80375" lon="2.25499">
        <ele>99.15</ele>
        <time>2011-01-09T07:51:10Z</time>
      </trkpt>
      <trkpt lat="48.80378" lon="2.25492">
        <ele>97.23</ele>
        <time>2011-01-09T07:51:12Z</time>
      </trkpt>
      <trkpt lat="48.80383" lon="2.25475">
        <ele>96.27</ele>
        <time>2011-01-09T07:51:17Z</time>
      </trkpt>
      <trkpt lat="48.80386" lon="2.25464">
        <ele>95.79</ele>
        <time>2011-01-09T07:51:20Z</time>
      </trkpt>
      <trkpt lat="48.80388" lon="2.25458">
        <ele>97.71</ele>
        <time>2011-01-09T07:51:22Z</time>
      </trkpt>
      <trkpt lat="48.80394" lon="2.25447">
        <ele>97.71</ele>
        <time>2011-01-09T07:51:26Z</time>
      </trkpt>
      <trkpt lat="48.804" lon="2.25426">
        <ele>97.71</ele>
        <time>2011-01-09T07:51:34Z</time>
      </trkpt>
      <trkpt lat="48.80416" lon="2.25402">
        <ele>98.19</ele>
        <time>2011-01-09T07:51:43Z</time>
      </trkpt>
      <trkpt lat="48.8042" lon="2.25394">
        <ele>97.23</ele>
        <time>2011-01-09T07:51:45Z</time>
      </trkpt>
      <trkpt lat="48.80426" lon="2.25379">
        <ele>98.19</ele>
        <time>2011-01-09T07:51:50Z</time>
      </trkpt>
      <trkpt lat="48.80428" lon="2.25373">
        <ele>101.08</ele>
        <time>2011-01-09T07:51:52Z</time>
      </trkpt>
      <trkpt lat="48.8043" lon="2.25368">
        <ele>99.63</ele>
        <time>2011-01-09T07:51:54Z</time>
      </trkpt>
      <trkpt lat="48.80445" lon="2.25345">
        <ele>97.71</ele>
        <time>2011-01-09T07:52:03Z</time>
      </trkpt>
      <trkpt lat="48.80451" lon="2.25336">
        <ele>97.23</ele>
        <time>2011-01-09T07:52:07Z</time>
      </trkpt>
      <trkpt lat="48.80456" lon="2.25329">
        <ele>99.63</ele>
        <time>2011-01-09T07:52:11Z</time>
      </trkpt>
      <trkpt lat="48.80459" lon="2.25324">
        <ele>98.19</ele>
        <time>2011-01-09T07:52:13Z</time>
      </trkpt>
      <trkpt lat="48.80461" lon="2.25316">
        <ele>100.6</ele>
        <time>2011-01-09T07:52:16Z</time>
      </trkpt>
      <trkpt lat="48.80462" lon="2.25314">
        <ele>99.15</ele>
        <time>2011-01-09T07:52:17Z</time>
      </trkpt>
      <trkpt lat="48.80469" lon="2.25299">
        <ele>104.92</ele>
        <time>2011-01-09T07:52:26Z</time>
      </trkpt>
      <trkpt lat="48.8047" lon="2.25297">
        <ele>103.48</ele>
        <time>2011-01-09T07:52:27Z</time>
      </trkpt>
      <trkpt lat="48.80471" lon="2.25295">
        <ele>103</ele>
        <time>2011-01-09T07:52:28Z</time>
      </trkpt>
      <trkpt lat="48.80482" lon="2.25282">
        <ele>104.44</ele>
        <time>2011-01-09T07:52:35Z</time>
      </trkpt>
      <trkpt lat="48.80483" lon="2.25279">
        <ele>104.92</ele>
        <time>2011-01-09T07:52:37Z</time>
      </trkpt>
      <trkpt lat="48.80488" lon="2.25271">
        <ele>105.88</ele>
        <time>2011-01-09T07:52:42Z</time>
      </trkpt>
      <trkpt lat="48.80488" lon="2.25266">
        <ele>104.44</ele>
        <time>2011-01-09T07:52:45Z</time>
      </trkpt>
      <trkpt lat="48.80488" lon="2.25265">
        <ele>107.81</ele>
        <time>2011-01-09T07:52:46Z</time>
      </trkpt>
      <trkpt lat="48.80488" lon="2.25243">
        <ele>109.25</ele>
        <time>2011-01-09T07:52:56Z</time>
      </trkpt>
      <trkpt lat="48.80489" lon="2.25225">
        <ele>111.17</ele>
        <time>2011-01-09T07:53:01Z</time>
      </trkpt>
      <trkpt lat="48.8049" lon="2.2522">
        <ele>109.73</ele>
        <time>2011-01-09T07:53:03Z</time>
      </trkpt>
      <trkpt lat="48.80491" lon="2.25217">
        <ele>109.25</ele>
        <time>2011-01-09T07:53:05Z</time>
      </trkpt>
      <trkpt lat="48.805" lon="2.25191">
        <ele>110.21</ele>
        <time>2011-01-09T07:53:14Z</time>
      </trkpt>
      <trkpt lat="48.805" lon="2.25188">
        <ele>107.81</ele>
        <time>2011-01-09T07:53:15Z</time>
      </trkpt>
      <trkpt lat="48.80503" lon="2.25152">
        <ele>108.29</ele>
        <time>2011-01-09T07:53:26Z</time>
      </trkpt>
      <trkpt lat="48.80505" lon="2.25144">
        <ele>110.21</ele>
        <time>2011-01-09T07:53:29Z</time>
      </trkpt>
      <trkpt lat="48.80506" lon="2.25134">
        <ele>111.17</ele>
        <time>2011-01-09T07:53:33Z</time>
      </trkpt>
      <trkpt lat="48.80506" lon="2.25107">
        <ele>112.61</ele>
        <time>2011-01-09T07:53:42Z</time>
      </trkpt>
      <trkpt lat="48.80507" lon="2.251">
        <ele>110.21</ele>
        <time>2011-01-09T07:53:44Z</time>
      </trkpt>
      <trkpt lat="48.80508" lon="2.25095">
        <ele>110.69</ele>
        <time>2011-01-09T07:53:46Z</time>
      </trkpt>
      <trkpt lat="48.80507" lon="2.25081">
        <ele>109.73</ele>
        <time>2011-01-09T07:53:50Z</time>
      </trkpt>
      <trkpt lat="48.80509" lon="2.25067">
        <ele>114.53</ele>
        <time>2011-01-09T07:53:54Z</time>
      </trkpt>
      <trkpt lat="48.8051" lon="2.25064">
        <ele>111.17</ele>
        <time>2011-01-09T07:53:55Z</time>
      </trkpt>
      <trkpt lat="48.80512" lon="2.2506">
        <ele>114.05</ele>
        <time>2011-01-09T07:53:57Z</time>
      </trkpt>
      <trkpt lat="48.80512" lon="2.25035">
        <ele>111.17</ele>
        <time>2011-01-09T07:54:05Z</time>
      </trkpt>
      <trkpt lat="48.80511" lon="2.25032">
        <ele>112.13</ele>
        <time>2011-01-09T07:54:06Z</time>
      </trkpt>
      <trkpt lat="48.80509" lon="2.25026">
        <ele>112.61</ele>
        <time>2011-01-09T07:54:08Z</time>
      </trkpt>
      <trkpt lat="48.80502" lon="2.25013">
        <ele>114.53</ele>
        <time>2011-01-09T07:54:14Z</time>
      </trkpt>
      <trkpt lat="48.80496" lon="2.24995">
        <ele>114.53</ele>
        <time>2011-01-09T07:54:22Z</time>
      </trkpt>
      <trkpt lat="48.8049" lon="2.24983">
        <ele>116.94</ele>
        <time>2011-01-09T07:54:28Z</time>
      </trkpt>
      <trkpt lat="48.80489" lon="2.24982">
        <ele>116.94</ele>
        <time>2011-01-09T07:54:29Z</time>
      </trkpt>
      <trkpt lat="48.80481" lon="2.24962">
        <ele>114.53</ele>
        <time>2011-01-09T07:54:39Z</time>
      </trkpt>
      <trkpt lat="48.80478" lon="2.2496">
        <ele>114.53</ele>
        <time>2011-01-09T07:54:41Z</time>
      </trkpt>
      <trkpt lat="48.80472" lon="2.24958">
        <ele>119.82</ele>
        <time>2011-01-09T07:54:45Z</time>
      </trkpt>
      <trkpt lat="48.80469" lon="2.24958">
        <ele>116.46</ele>
        <time>2011-01-09T07:54:46Z</time>
      </trkpt>
      <trkpt lat="48.80467" lon="2.24957">
        <ele>118.38</ele>
        <time>2011-01-09T07:54:47Z</time>
      </trkpt>
      <trkpt lat="48.80462" lon="2.24955">
        <ele>118.38</ele>
        <time>2011-01-09T07:54:49Z</time>
      </trkpt>
      <trkpt lat="48.80448" lon="2.24941">
        <ele>120.78</ele>
        <time>2011-01-09T07:54:58Z</time>
      </trkpt>
      <trkpt lat="48.80442" lon="2.24935">
        <ele>121.74</ele>
        <time>2011-01-09T07:55:03Z</time>
      </trkpt>
      <trkpt lat="48.80435" lon="2.24928">
        <ele>125.11</ele>
        <time>2011-01-09T07:55:08Z</time>
      </trkpt>
      <trkpt lat="48.80426" lon="2.2492">
        <ele>125.11</ele>
        <time>2011-01-09T07:55:14Z</time>
      </trkpt>
      <trkpt lat="48.8042" lon="2.24911">
        <ele>122.71</ele>
        <time>2011-01-09T07:55:18Z</time>
      </trkpt>
      <trkpt lat="48.80418" lon="2.24907">
        <ele>127.51</ele>
        <time>2011-01-09T07:55:20Z</time>
      </trkpt>
      <trkpt lat="48.80417" lon="2.24906">
        <ele>125.11</ele>
        <time>2011-01-09T07:55:21Z</time>
      </trkpt>
      <trkpt lat="48.80412" lon="2.24899">
        <ele>128.47</ele>
        <time>2011-01-09T07:55:26Z</time>
      </trkpt>
      <trkpt lat="48.8041" lon="2.24896">
        <ele>127.99</ele>
        <time>2011-01-09T07:55:28Z</time>
      </trkpt>
      <trkpt lat="48.80407" lon="2.24894">
        <ele>129.43</ele>
        <time>2011-01-09T07:55:30Z</time>
      </trkpt>
      <trkpt lat="48.80394" lon="2.24886">
        <ele>131.84</ele>
        <time>2011-01-09T07:55:39Z</time>
      </trkpt>
      <trkpt lat="48.80393" lon="2.24884">
        <ele>128.47</ele>
        <time>2011-01-09T07:55:40Z</time>
      </trkpt>
      <trkpt lat="48.80392" lon="2.24883">
        <ele>132.8</ele>
        <time>2011-01-09T07:55:41Z</time>
      </trkpt>
      <trkpt lat="48.80391" lon="2.2488">
        <ele>128.47</ele>
        <time>2011-01-09T07:55:43Z</time>
      </trkpt>
      <trkpt lat="48.80389" lon="2.24877">
        <ele>132.32</ele>
        <time>2011-01-09T07:55:46Z</time>
      </trkpt>
      <trkpt lat="48.80385" lon="2.24874">
        <ele>131.36</ele>
        <time>2011-01-09T07:55:49Z</time>
      </trkpt>
      <trkpt lat="48.80364" lon="2.24863">
        <ele>134.24</ele>
        <time>2011-01-09T07:55:58Z</time>
      </trkpt>
      <trkpt lat="48.80352" lon="2.24853">
        <ele>135.2</ele>
        <time>2011-01-09T07:56:06Z</time>
      </trkpt>
      <trkpt lat="48.80347" lon="2.2485">
        <ele>138.09</ele>
        <time>2011-01-09T07:56:09Z</time>
      </trkpt>
      <trkpt lat="48.80333" lon="2.24836">
        <ele>136.64</ele>
        <time>2011-01-09T07:56:18Z</time>
      </trkpt>
      <trkpt lat="48.80331" lon="2.24833">
        <ele>137.13</ele>
        <time>2011-01-09T07:56:19Z</time>
      </trkpt>
      <trkpt lat="48.80309" lon="2.24805">
        <ele>138.09</ele>
        <time>2011-01-09T07:56:33Z</time>
      </trkpt>
      <trkpt lat="48.803" lon="2.24796">
        <ele>138.09</ele>
        <time>2011-01-09T07:56:38Z</time>
      </trkpt>
      <trkpt lat="48.8029" lon="2.24775">
        <ele>138.09</ele>
        <time>2011-01-09T07:56:46Z</time>
      </trkpt>
      <trkpt lat="48.80288" lon="2.24767">
        <ele>138.57</ele>
        <time>2011-01-09T07:56:48Z</time>
      </trkpt>
      <trkpt lat="48.80284" lon="2.24757">
        <ele>138.57</ele>
        <time>2011-01-09T07:56:53Z</time>
      </trkpt>
      <trkpt lat="48.80274" lon="2.24746">
        <ele>138.09</ele>
        <time>2011-01-09T07:56:58Z</time>
      </trkpt>
      <trkpt lat="48.80258" lon="2.24713">
        <ele>140.01</ele>
        <time>2011-01-09T07:57:08Z</time>
      </trkpt>
      <trkpt lat="48.80246" lon="2.24683">
        <ele>137.61</ele>
        <time>2011-01-09T07:57:18Z</time>
      </trkpt>
      <trkpt lat="48.80243" lon="2.24668">
        <ele>140.97</ele>
        <time>2011-01-09T07:57:23Z</time>
      </trkpt>
      <trkpt lat="48.80242" lon="2.24666">
        <ele>136.16</ele>
        <time>2011-01-09T07:57:24Z</time>
      </trkpt>
      <trkpt lat="48.8024" lon="2.24658">
        <ele>140.97</ele>
        <time>2011-01-09T07:57:26Z</time>
      </trkpt>
      <trkpt lat="48.80239" lon="2.24654">
        <ele>136.64</ele>
        <time>2011-01-09T07:57:27Z</time>
      </trkpt>
      <trkpt lat="48.80238" lon="2.2465">
        <ele>140.01</ele>
        <time>2011-01-09T07:57:28Z</time>
      </trkpt>
      <trkpt lat="48.80234" lon="2.24632">
        <ele>136.64</ele>
        <time>2011-01-09T07:57:32Z</time>
      </trkpt>
      <trkpt lat="48.80229" lon="2.24618">
        <ele>139.05</ele>
        <time>2011-01-09T07:57:36Z</time>
      </trkpt>
      <trkpt lat="48.80222" lon="2.24609">
        <ele>138.57</ele>
        <time>2011-01-09T07:57:41Z</time>
      </trkpt>
      <trkpt lat="48.80215" lon="2.24602">
        <ele>139.05</ele>
        <time>2011-01-09T07:57:45Z</time>
      </trkpt>
      <trkpt lat="48.8021" lon="2.24598">
        <ele>135.68</ele>
        <time>2011-01-09T07:57:48Z</time>
      </trkpt>
      <trkpt lat="48.80207" lon="2.24597">
        <ele>140.01</ele>
        <time>2011-01-09T07:57:50Z</time>
      </trkpt>
      <trkpt lat="48.80204" lon="2.24596">
        <ele>137.61</ele>
        <time>2011-01-09T07:57:52Z</time>
      </trkpt>
      <trkpt lat="48.80201" lon="2.24595">
        <ele>138.09</ele>
        <time>2011-01-09T07:57:54Z</time>
      </trkpt>
      <trkpt lat="48.80184" lon="2.24585">
        <ele>134.72</ele>
        <time>2011-01-09T07:58:01Z</time>
      </trkpt>
      <trkpt lat="48.80182" lon="2.24584">
        <ele>137.61</ele>
        <time>2011-01-09T07:58:02Z</time>
      </trkpt>
      <trkpt lat="48.80176" lon="2.2458">
        <ele>140.97</ele>
        <time>2011-01-09T07:58:04Z</time>
      </trkpt>
      <trkpt lat="48.80174" lon="2.24578">
        <ele>137.13</ele>
        <time>2011-01-09T07:58:05Z</time>
      </trkpt>
      <trkpt lat="48.80171" lon="2.24577">
        <ele>137.61</ele>
        <time>2011-01-09T07:58:06Z</time>
      </trkpt>
      <trkpt lat="48.80169" lon="2.24576">
        <ele>137.13</ele>
        <time>2011-01-09T07:58:07Z</time>
      </trkpt>
      <trkpt lat="48.80164" lon="2.24575">
        <ele>140.01</ele>
        <time>2011-01-09T07:58:09Z</time>
      </trkpt>
      <trkpt lat="48.80159" lon="2.24574">
        <ele>136.16</ele>
        <time>2011-01-09T07:58:11Z</time>
      </trkpt>
      <trkpt lat="48.80157" lon="2.24573">
        <ele>139.53</ele>
        <time>2011-01-09T07:58:12Z</time>
      </trkpt>
      <trkpt lat="48.80141" lon="2.24571">
        <ele>136.16</ele>
        <time>2011-01-09T07:58:20Z</time>
      </trkpt>
      <trkpt lat="48.80139" lon="2.24571">
        <ele>139.05</ele>
        <time>2011-01-09T07:58:21Z</time>
      </trkpt>
      <trkpt lat="48.80118" lon="2.24565">
        <ele>135.68</ele>
        <time>2011-01-09T07:58:29Z</time>
      </trkpt>
      <trkpt lat="48.80116" lon="2.24566">
        <ele>141.45</ele>
        <time>2011-01-09T07:58:30Z</time>
      </trkpt>
      <trkpt lat="48.80114" lon="2.24567">
        <ele>137.61</ele>
        <time>2011-01-09T07:58:31Z</time>
      </trkpt>
      <trkpt lat="48.80104" lon="2.24569">
        <ele>140.01</ele>
        <time>2011-01-09T07:58:35Z</time>
      </trkpt>
      <trkpt lat="48.80079" lon="2.24559">
        <ele>140.01</ele>
        <time>2011-01-09T07:58:46Z</time>
      </trkpt>
      <trkpt lat="48.80077" lon="2.24559">
        <ele>136.64</ele>
        <time>2011-01-09T07:58:47Z</time>
      </trkpt>
      <trkpt lat="48.80071" lon="2.24558">
        <ele>140.01</ele>
        <time>2011-01-09T07:58:50Z</time>
      </trkpt>
      <trkpt lat="48.8007" lon="2.24557">
        <ele>134.72</ele>
        <time>2011-01-09T07:58:51Z</time>
      </trkpt>
      <trkpt lat="48.80068" lon="2.24557">
        <ele>138.09</ele>
        <time>2011-01-09T07:58:52Z</time>
      </trkpt>
      <trkpt lat="48.80063" lon="2.24556">
        <ele>141.45</ele>
        <time>2011-01-09T07:58:55Z</time>
      </trkpt>
      <trkpt lat="48.80059" lon="2.24556">
        <ele>139.53</ele>
        <time>2011-01-09T07:58:58Z</time>
      </trkpt>
      <trkpt lat="48.80052" lon="2.24554">
        <ele>143.85</ele>
        <time>2011-01-09T07:59:03Z</time>
      </trkpt>
      <trkpt lat="48.80025" lon="2.24554">
        <ele>142.89</ele>
        <time>2011-01-09T07:59:12Z</time>
      </trkpt>
      <trkpt lat="48.80023" lon="2.24555">
        <ele>140.97</ele>
        <time>2011-01-09T07:59:13Z</time>
      </trkpt>
      <trkpt lat="48.80015" lon="2.24554">
        <ele>144.34</ele>
        <time>2011-01-09T07:59:17Z</time>
      </trkpt>
      <trkpt lat="48.80012" lon="2.24554">
        <ele>138.57</ele>
        <time>2011-01-09T07:59:18Z</time>
      </trkpt>
      <trkpt lat="48.79995" lon="2.24554">
        <ele>139.05</ele>
        <time>2011-01-09T07:59:24Z</time>
      </trkpt>
      <trkpt lat="48.79981" lon="2.24553">
        <ele>140.97</ele>
        <time>2011-01-09T07:59:30Z</time>
      </trkpt>
      <trkpt lat="48.79971" lon="2.24553">
        <ele>143.85</ele>
        <time>2011-01-09T07:59:34Z</time>
      </trkpt>
      <trkpt lat="48.79955" lon="2.24561">
        <ele>141.93</ele>
        <time>2011-01-09T07:59:42Z</time>
      </trkpt>
      <trkpt lat="48.79945" lon="2.2456">
        <ele>138.57</ele>
        <time>2011-01-09T07:59:48Z</time>
      </trkpt>
      <trkpt lat="48.79939" lon="2.24559">
        <ele>143.85</ele>
        <time>2011-01-09T07:59:50Z</time>
      </trkpt>
      <trkpt lat="48.7993" lon="2.24556">
        <ele>146.74</ele>
        <time>2011-01-09T07:59:54Z</time>
      </trkpt>
      <trkpt lat="48.79928" lon="2.24555">
        <ele>142.41</ele>
        <time>2011-01-09T07:59:55Z</time>
      </trkpt>
      <trkpt lat="48.79916" lon="2.24544">
        <ele>142.41</ele>
        <time>2011-01-09T07:59:59Z</time>
      </trkpt>
      <trkpt lat="48.79908" lon="2.24537">
        <ele>142.41</ele>
        <time>2011-01-09T08:00:02Z</time>
      </trkpt>
      <trkpt lat="48.79904" lon="2.24533">
        <ele>143.37</ele>
        <time>2011-01-09T08:00:04Z</time>
      </trkpt>
      <trkpt lat="48.79893" lon="2.24522">
        <ele>142.41</ele>
        <time>2011-01-09T08:00:11Z</time>
      </trkpt>
      <trkpt lat="48.79886" lon="2.2452">
        <ele>140.97</ele>
        <time>2011-01-09T08:00:14Z</time>
      </trkpt>
      <trkpt lat="48.79882" lon="2.24519">
        <ele>146.26</ele>
        <time>2011-01-09T08:00:16Z</time>
      </trkpt>
      <trkpt lat="48.7988" lon="2.24518">
        <ele>143.37</ele>
        <time>2011-01-09T08:00:17Z</time>
      </trkpt>
      <trkpt lat="48.79873" lon="2.24516">
        <ele>141.45</ele>
        <time>2011-01-09T08:00:20Z</time>
      </trkpt>
      <trkpt lat="48.79867" lon="2.24515">
        <ele>145.3</ele>
        <time>2011-01-09T08:00:23Z</time>
      </trkpt>
      <trkpt lat="48.79865" lon="2.24516">
        <ele>144.82</ele>
        <time>2011-01-09T08:00:24Z</time>
      </trkpt>
      <trkpt lat="48.79854" lon="2.24516">
        <ele>142.89</ele>
        <time>2011-01-09T08:00:29Z</time>
      </trkpt>
      <trkpt lat="48.7985" lon="2.24514">
        <ele>144.34</ele>
        <time>2011-01-09T08:00:31Z</time>
      </trkpt>
      <trkpt lat="48.7985" lon="2.24513">
        <ele>144.82</ele>
        <time>2011-01-09T08:00:32Z</time>
      </trkpt>
      <trkpt lat="48.79854" lon="2.24487">
        <ele>138.57</ele>
        <time>2011-01-09T08:00:39Z</time>
      </trkpt>
      <trkpt lat="48.79855" lon="2.24483">
        <ele>142.89</ele>
        <time>2011-01-09T08:00:40Z</time>
      </trkpt>
      <trkpt lat="48.79859" lon="2.24474">
        <ele>138.09</ele>
        <time>2011-01-09T08:00:43Z</time>
      </trkpt>
      <trkpt lat="48.7986" lon="2.24471">
        <ele>139.53</ele>
        <time>2011-01-09T08:00:44Z</time>
      </trkpt>
      <trkpt lat="48.79864" lon="2.24465">
        <ele>137.13</ele>
        <time>2011-01-09T08:00:46Z</time>
      </trkpt>
      <trkpt lat="48.79873" lon="2.24456">
        <ele>136.64</ele>
        <time>2011-01-09T08:00:50Z</time>
      </trkpt>
      <trkpt lat="48.79879" lon="2.2445">
        <ele>130.88</ele>
        <time>2011-01-09T08:00:53Z</time>
      </trkpt>
      <trkpt lat="48.79891" lon="2.2442">
        <ele>129.43</ele>
        <time>2011-01-09T08:01:02Z</time>
      </trkpt>
      <trkpt lat="48.79897" lon="2.2441">
        <ele>126.55</ele>
        <time>2011-01-09T08:01:06Z</time>
      </trkpt>
      <trkpt lat="48.79899" lon="2.24408">
        <ele>125.11</ele>
        <time>2011-01-09T08:01:07Z</time>
      </trkpt>
      <trkpt lat="48.79903" lon="2.24401">
        <ele>125.11</ele>
        <time>2011-01-09T08:01:10Z</time>
      </trkpt>
      <trkpt lat="48.79914" lon="2.2439">
        <ele>124.63</ele>
        <time>2011-01-09T08:01:15Z</time>
      </trkpt>
      <trkpt lat="48.79919" lon="2.24383">
        <ele>123.19</ele>
        <time>2011-01-09T08:01:18Z</time>
      </trkpt>
      <trkpt lat="48.79921" lon="2.24377">
        <ele>124.15</ele>
        <time>2011-01-09T08:01:20Z</time>
      </trkpt>
      <trkpt lat="48.79924" lon="2.24372">
        <ele>120.3</ele>
        <time>2011-01-09T08:01:22Z</time>
      </trkpt>
      <trkpt lat="48.79928" lon="2.24366">
        <ele>121.74</ele>
        <time>2011-01-09T08:01:24Z</time>
      </trkpt>
      <trkpt lat="48.79931" lon="2.24359">
        <ele>122.22</ele>
        <time>2011-01-09T08:01:26Z</time>
      </trkpt>
      <trkpt lat="48.79932" lon="2.24357">
        <ele>127.51</ele>
        <time>2011-01-09T08:01:27Z</time>
      </trkpt>
      <trkpt lat="48.79934" lon="2.24354">
        <ele>119.34</ele>
        <time>2011-01-09T08:01:28Z</time>
      </trkpt>
      <trkpt lat="48.79935" lon="2.24352">
        <ele>120.78</ele>
        <time>2011-01-09T08:01:29Z</time>
      </trkpt>
      <trkpt lat="48.79941" lon="2.24346">
        <ele>115.01</ele>
        <time>2011-01-09T08:01:32Z</time>
      </trkpt>
      <trkpt lat="48.79946" lon="2.24342">
        <ele>119.34</ele>
        <time>2011-01-09T08:01:34Z</time>
      </trkpt>
      <trkpt lat="48.79948" lon="2.24336">
        <ele>117.42</ele>
        <time>2011-01-09T08:01:36Z</time>
      </trkpt>
      <trkpt lat="48.79953" lon="2.24325">
        <ele>115.5</ele>
        <time>2011-01-09T08:01:40Z</time>
      </trkpt>
      <trkpt lat="48.79955" lon="2.24323">
        <ele>114.05</ele>
        <time>2011-01-09T08:01:42Z</time>
      </trkpt>
      <trkpt lat="48.79956" lon="2.24322">
        <ele>112.13</ele>
        <time>2011-01-09T08:01:43Z</time>
      </trkpt>
      <trkpt lat="48.79959" lon="2.2432">
        <ele>109.25</ele>
        <time>2011-01-09T08:01:45Z</time>
      </trkpt>
      <trkpt lat="48.79961" lon="2.24319">
        <ele>113.57</ele>
        <time>2011-01-09T08:01:46Z</time>
      </trkpt>
      <trkpt lat="48.79964" lon="2.24315">
        <ele>111.17</ele>
        <time>2011-01-09T08:01:48Z</time>
      </trkpt>
      <trkpt lat="48.79966" lon="2.24311">
        <ele>111.65</ele>
        <time>2011-01-09T08:01:50Z</time>
      </trkpt>
      <trkpt lat="48.79968" lon="2.24306">
        <ele>115.01</ele>
        <time>2011-01-09T08:01:52Z</time>
      </trkpt>
      <trkpt lat="48.7997" lon="2.24304">
        <ele>113.09</ele>
        <time>2011-01-09T08:01:53Z</time>
      </trkpt>
      <trkpt lat="48.79974" lon="2.24297">
        <ele>109.73</ele>
        <time>2011-01-09T08:01:56Z</time>
      </trkpt>
      <trkpt lat="48.79975" lon="2.24293">
        <ele>111.65</ele>
        <time>2011-01-09T08:01:57Z</time>
      </trkpt>
      <trkpt lat="48.79978" lon="2.24287">
        <ele>107.32</ele>
        <time>2011-01-09T08:01:59Z</time>
      </trkpt>
      <trkpt lat="48.7998" lon="2.24284">
        <ele>107.32</ele>
        <time>2011-01-09T08:02:00Z</time>
      </trkpt>
      <trkpt lat="48.79985" lon="2.24276">
        <ele>110.69</ele>
        <time>2011-01-09T08:02:03Z</time>
      </trkpt>
      <trkpt lat="48.79989" lon="2.24271">
        <ele>106.84</ele>
        <time>2011-01-09T08:02:05Z</time>
      </trkpt>
      <trkpt lat="48.7999" lon="2.24269">
        <ele>110.21</ele>
        <time>2011-01-09T08:02:06Z</time>
      </trkpt>
      <trkpt lat="48.79995" lon="2.24262">
        <ele>106.36</ele>
        <time>2011-01-09T08:02:09Z</time>
      </trkpt>
      <trkpt lat="48.79997" lon="2.24259">
        <ele>102.04</ele>
        <time>2011-01-09T08:02:10Z</time>
      </trkpt>
      <trkpt lat="48.79999" lon="2.24257">
        <ele>104.44</ele>
        <time>2011-01-09T08:02:11Z</time>
      </trkpt>
      <trkpt lat="48.80001" lon="2.24255">
        <ele>107.32</ele>
        <time>2011-01-09T08:02:12Z</time>
      </trkpt>
      <trkpt lat="48.80003" lon="2.24252">
        <ele>107.32</ele>
        <time>2011-01-09T08:02:13Z</time>
      </trkpt>
      <trkpt lat="48.80007" lon="2.24247">
        <ele>105.88</ele>
        <time>2011-01-09T08:02:15Z</time>
      </trkpt>
      <trkpt lat="48.80008" lon="2.24245">
        <ele>107.81</ele>
        <time>2011-01-09T08:02:16Z</time>
      </trkpt>
      <trkpt lat="48.80015" lon="2.24233">
        <ele>104.44</ele>
        <time>2011-01-09T08:02:22Z</time>
      </trkpt>
      <trkpt lat="48.80021" lon="2.24226">
        <ele>102.04</ele>
        <time>2011-01-09T08:02:27Z</time>
      </trkpt>
      <trkpt lat="48.80023" lon="2.24224">
        <ele>103</ele>
        <time>2011-01-09T08:02:28Z</time>
      </trkpt>
      <trkpt lat="48.80032" lon="2.24206">
        <ele>100.11</ele>
        <time>2011-01-09T08:02:33Z</time>
      </trkpt>
      <trkpt lat="48.80035" lon="2.24203">
        <ele>100.6</ele>
        <time>2011-01-09T08:02:34Z</time>
      </trkpt>
      <trkpt lat="48.80051" lon="2.24185">
        <ele>96.75</ele>
        <time>2011-01-09T08:02:42Z</time>
      </trkpt>
      <trkpt lat="48.80052" lon="2.24182">
        <ele>100.11</ele>
        <time>2011-01-09T08:02:43Z</time>
      </trkpt>
      <trkpt lat="48.80054" lon="2.24179">
        <ele>94.83</ele>
        <time>2011-01-09T08:02:44Z</time>
      </trkpt>
      <trkpt lat="48.80057" lon="2.24174">
        <ele>99.63</ele>
        <time>2011-01-09T08:02:46Z</time>
      </trkpt>
      <trkpt lat="48.80057" lon="2.24171">
        <ele>98.19</ele>
        <time>2011-01-09T08:02:47Z</time>
      </trkpt>
      <trkpt lat="48.80058" lon="2.24169">
        <ele>93.87</ele>
        <time>2011-01-09T08:02:48Z</time>
      </trkpt>
      <trkpt lat="48.80059" lon="2.24166">
        <ele>97.23</ele>
        <time>2011-01-09T08:02:49Z</time>
      </trkpt>
      <trkpt lat="48.80059" lon="2.24164">
        <ele>97.71</ele>
        <time>2011-01-09T08:02:50Z</time>
      </trkpt>
      <trkpt lat="48.80063" lon="2.24156">
        <ele>96.27</ele>
        <time>2011-01-09T08:02:53Z</time>
      </trkpt>
      <trkpt lat="48.80064" lon="2.24153">
        <ele>94.35</ele>
        <time>2011-01-09T08:02:54Z</time>
      </trkpt>
      <trkpt lat="48.80064" lon="2.24143">
        <ele>99.15</ele>
        <time>2011-01-09T08:03:00Z</time>
      </trkpt>
      <trkpt lat="48.80061" lon="2.24138">
        <ele>95.79</ele>
        <time>2011-01-09T08:03:03Z</time>
      </trkpt>
      <trkpt lat="48.80059" lon="2.24126">
        <ele>97.23</ele>
        <time>2011-01-09T08:03:07Z</time>
      </trkpt>
      <trkpt lat="48.80056" lon="2.24116">
        <ele>94.35</ele>
        <time>2011-01-09T08:03:11Z</time>
      </trkpt>
      <trkpt lat="48.80054" lon="2.24112">
        <ele>94.83</ele>
        <time>2011-01-09T08:03:12Z</time>
      </trkpt>
      <trkpt lat="48.80053" lon="2.24108">
        <ele>99.63</ele>
        <time>2011-01-09T08:03:13Z</time>
      </trkpt>
      <trkpt lat="48.80051" lon="2.24104">
        <ele>98.19</ele>
        <time>2011-01-09T08:03:14Z</time>
      </trkpt>
      <trkpt lat="48.80049" lon="2.24101">
        <ele>93.87</ele>
        <time>2011-01-09T08:03:15Z</time>
      </trkpt>
      <trkpt lat="48.80047" lon="2.24098">
        <ele>102.04</ele>
        <time>2011-01-09T08:03:16Z</time>
      </trkpt>
      <trkpt lat="48.80046" lon="2.24096">
        <ele>97.71</ele>
        <time>2011-01-09T08:03:17Z</time>
      </trkpt>
      <trkpt lat="48.80029" lon="2.24089">
        <ele>98.19</ele>
        <time>2011-01-09T08:03:27Z</time>
      </trkpt>
      <trkpt lat="48.80008" lon="2.24071">
        <ele>96.75</ele>
        <time>2011-01-09T08:03:37Z</time>
      </trkpt>
      <trkpt lat="48.79994" lon="2.24064">
        <ele>93.39</ele>
        <time>2011-01-09T08:03:42Z</time>
      </trkpt>
      <trkpt lat="48.79992" lon="2.24063">
        <ele>97.71</ele>
        <time>2011-01-09T08:03:43Z</time>
      </trkpt>
      <trkpt lat="48.79988" lon="2.24061">
        <ele>93.87</ele>
        <time>2011-01-09T08:03:45Z</time>
      </trkpt>
      <trkpt lat="48.79986" lon="2.2406">
        <ele>93.87</ele>
        <time>2011-01-09T08:03:46Z</time>
      </trkpt>
      <trkpt lat="48.79971" lon="2.24051">
        <ele>89.54</ele>
        <time>2011-01-09T08:03:51Z</time>
      </trkpt>
      <trkpt lat="48.79969" lon="2.24049">
        <ele>89.54</ele>
        <time>2011-01-09T08:03:52Z</time>
      </trkpt>
      <trkpt lat="48.79966" lon="2.24047">
        <ele>95.79</ele>
        <time>2011-01-09T08:03:53Z</time>
      </trkpt>
      <trkpt lat="48.79963" lon="2.24045">
        <ele>91.46</ele>
        <time>2011-01-09T08:03:54Z</time>
      </trkpt>
      <trkpt lat="48.79944" lon="2.24035">
        <ele>88.58</ele>
        <time>2011-01-09T08:04:01Z</time>
      </trkpt>
      <trkpt lat="48.79942" lon="2.24034">
        <ele>91.94</ele>
        <time>2011-01-09T08:04:02Z</time>
      </trkpt>
      <trkpt lat="48.79938" lon="2.24031">
        <ele>95.79</ele>
        <time>2011-01-09T08:04:04Z</time>
      </trkpt>
      <trkpt lat="48.79937" lon="2.24029">
        <ele>91.46</ele>
        <time>2011-01-09T08:04:05Z</time>
      </trkpt>
      <trkpt lat="48.79936" lon="2.24028">
        <ele>90.98</ele>
        <time>2011-01-09T08:04:06Z</time>
      </trkpt>
      <trkpt lat="48.79933" lon="2.24024">
        <ele>86.18</ele>
        <time>2011-01-09T08:04:08Z</time>
      </trkpt>
      <trkpt lat="48.7993" lon="2.24021">
        <ele>90.02</ele>
        <time>2011-01-09T08:04:09Z</time>
      </trkpt>
      <trkpt lat="48.79912" lon="2.23997">
        <ele>88.58</ele>
        <time>2011-01-09T08:04:18Z</time>
      </trkpt>
      <trkpt lat="48.79899" lon="2.23982">
        <ele>89.06</ele>
        <time>2011-01-09T08:04:23Z</time>
      </trkpt>
      <trkpt lat="48.79897" lon="2.2398">
        <ele>93.87</ele>
        <time>2011-01-09T08:04:24Z</time>
      </trkpt>
      <trkpt lat="48.79895" lon="2.23978">
        <ele>87.62</ele>
        <time>2011-01-09T08:04:25Z</time>
      </trkpt>
      <trkpt lat="48.79891" lon="2.23973">
        <ele>90.5</ele>
        <time>2011-01-09T08:04:27Z</time>
      </trkpt>
      <trkpt lat="48.79888" lon="2.23969">
        <ele>86.66</ele>
        <time>2011-01-09T08:04:29Z</time>
      </trkpt>
      <trkpt lat="48.79887" lon="2.23968">
        <ele>87.62</ele>
        <time>2011-01-09T08:04:30Z</time>
      </trkpt>
      <trkpt lat="48.79883" lon="2.23963">
        <ele>90.02</ele>
        <time>2011-01-09T08:04:32Z</time>
      </trkpt>
      <trkpt lat="48.79874" lon="2.23955">
        <ele>86.18</ele>
        <time>2011-01-09T08:04:35Z</time>
      </trkpt>
      <trkpt lat="48.79872" lon="2.23953">
        <ele>88.58</ele>
        <time>2011-01-09T08:04:36Z</time>
      </trkpt>
      <trkpt lat="48.79869" lon="2.23951">
        <ele>91.94</ele>
        <time>2011-01-09T08:04:37Z</time>
      </trkpt>
      <trkpt lat="48.7986" lon="2.23943">
        <ele>88.58</ele>
        <time>2011-01-09T08:04:42Z</time>
      </trkpt>
      <trkpt lat="48.79846" lon="2.23934">
        <ele>90.5</ele>
        <time>2011-01-09T08:04:49Z</time>
      </trkpt>
      <trkpt lat="48.79839" lon="2.23927">
        <ele>87.62</ele>
        <time>2011-01-09T08:04:52Z</time>
      </trkpt>
      <trkpt lat="48.79837" lon="2.23925">
        <ele>90.5</ele>
        <time>2011-01-09T08:04:53Z</time>
      </trkpt>
      <trkpt lat="48.79817" lon="2.2392">
        <ele>86.66</ele>
        <time>2011-01-09T08:05:01Z</time>
      </trkpt>
      <trkpt lat="48.79809" lon="2.23917">
        <ele>88.58</ele>
        <time>2011-01-09T08:05:04Z</time>
      </trkpt>
      <trkpt lat="48.79803" lon="2.23916">
        <ele>87.14</ele>
        <time>2011-01-09T08:05:06Z</time>
      </trkpt>
      <trkpt lat="48.79779" lon="2.23911">
        <ele>85.21</ele>
        <time>2011-01-09T08:05:14Z</time>
      </trkpt>
      <trkpt lat="48.79776" lon="2.23909">
        <ele>85.21</ele>
        <time>2011-01-09T08:05:15Z</time>
      </trkpt>
      <trkpt lat="48.79761" lon="2.23887">
        <ele>85.21</ele>
        <time>2011-01-09T08:05:22Z</time>
      </trkpt>
      <trkpt lat="48.79758" lon="2.23881">
        <ele>81.85</ele>
        <time>2011-01-09T08:05:24Z</time>
      </trkpt>
      <trkpt lat="48.79755" lon="2.23876">
        <ele>84.73</ele>
        <time>2011-01-09T08:05:26Z</time>
      </trkpt>
      <trkpt lat="48.79739" lon="2.23848">
        <ele>83.29</ele>
        <time>2011-01-09T08:05:34Z</time>
      </trkpt>
      <trkpt lat="48.79733" lon="2.23839">
        <ele>81.37</ele>
        <time>2011-01-09T08:05:38Z</time>
      </trkpt>
      <trkpt lat="48.79708" lon="2.23817">
        <ele>83.77</ele>
        <time>2011-01-09T08:05:50Z</time>
      </trkpt>
      <trkpt lat="48.79678" lon="2.23787">
        <ele>85.69</ele>
        <time>2011-01-09T08:06:04Z</time>
      </trkpt>
      <trkpt lat="48.79663" lon="2.2377">
        <ele>89.06</ele>
        <time>2011-01-09T08:06:12Z</time>
      </trkpt>
      <trkpt lat="48.79659" lon="2.23763">
        <ele>84.73</ele>
        <time>2011-01-09T08:06:15Z</time>
      </trkpt>
      <trkpt lat="48.79657" lon="2.23761">
        <ele>88.1</ele>
        <time>2011-01-09T08:06:16Z</time>
      </trkpt>
      <trkpt lat="48.79641" lon="2.23735">
        <ele>89.54</ele>
        <time>2011-01-09T08:06:27Z</time>
      </trkpt>
      <trkpt lat="48.79629" lon="2.23726">
        <ele>85.69</ele>
        <time>2011-01-09T08:06:33Z</time>
      </trkpt>
      <trkpt lat="48.79627" lon="2.23725">
        <ele>90.02</ele>
        <time>2011-01-09T08:06:34Z</time>
      </trkpt>
      <trkpt lat="48.79619" lon="2.23717">
        <ele>91.46</ele>
        <time>2011-01-09T08:06:39Z</time>
      </trkpt>
      <trkpt lat="48.79603" lon="2.23696">
        <ele>92.42</ele>
        <time>2011-01-09T08:06:50Z</time>
      </trkpt>
      <trkpt lat="48.79602" lon="2.23694">
        <ele>89.54</ele>
        <time>2011-01-09T08:06:51Z</time>
      </trkpt>
      <trkpt lat="48.79587" lon="2.23675">
        <ele>93.39</ele>
        <time>2011-01-09T08:07:00Z</time>
      </trkpt>
      <trkpt lat="48.79586" lon="2.23673">
        <ele>92.9</ele>
        <time>2011-01-09T08:07:01Z</time>
      </trkpt>
      <trkpt lat="48.79584" lon="2.23671">
        <ele>92.9</ele>
        <time>2011-01-09T08:07:02Z</time>
      </trkpt>
      <trkpt lat="48.79578" lon="2.2366">
        <ele>93.87</ele>
        <time>2011-01-09T08:07:08Z</time>
      </trkpt>
      <trkpt lat="48.79569" lon="2.2364">
        <ele>95.31</ele>
        <time>2011-01-09T08:07:16Z</time>
      </trkpt>
      <trkpt lat="48.79563" lon="2.23634">
        <ele>97.23</ele>
        <time>2011-01-09T08:07:20Z</time>
      </trkpt>
      <trkpt lat="48.79558" lon="2.23627">
        <ele>96.75</ele>
        <time>2011-01-09T08:07:24Z</time>
      </trkpt>
      <trkpt lat="48.79556" lon="2.23622">
        <ele>96.27</ele>
        <time>2011-01-09T08:07:26Z</time>
      </trkpt>
      <trkpt lat="48.79554" lon="2.23616">
        <ele>97.23</ele>
        <time>2011-01-09T08:07:28Z</time>
      </trkpt>
      <trkpt lat="48.79552" lon="2.23605">
        <ele>96.75</ele>
        <time>2011-01-09T08:07:31Z</time>
      </trkpt>
      <trkpt lat="48.7955" lon="2.23594">
        <ele>97.71</ele>
        <time>2011-01-09T08:07:34Z</time>
      </trkpt>
      <trkpt lat="48.7955" lon="2.23585">
        <ele>94.83</ele>
        <time>2011-01-09T08:07:37Z</time>
      </trkpt>
      <trkpt lat="48.7955" lon="2.23583">
        <ele>98.67</ele>
        <time>2011-01-09T08:07:38Z</time>
      </trkpt>
      <trkpt lat="48.79548" lon="2.2357">
        <ele>97.23</ele>
        <time>2011-01-09T08:07:42Z</time>
      </trkpt>
      <trkpt lat="48.79543" lon="2.23538">
        <ele>96.75</ele>
        <time>2011-01-09T08:07:52Z</time>
      </trkpt>
      <trkpt lat="48.79543" lon="2.23536">
        <ele>97.23</ele>
        <time>2011-01-09T08:07:53Z</time>
      </trkpt>
      <trkpt lat="48.79542" lon="2.23533">
        <ele>97.71</ele>
        <time>2011-01-09T08:07:54Z</time>
      </trkpt>
      <trkpt lat="48.79541" lon="2.23523">
        <ele>98.19</ele>
        <time>2011-01-09T08:07:58Z</time>
      </trkpt>
      <trkpt lat="48.79538" lon="2.23497">
        <ele>96.75</ele>
        <time>2011-01-09T08:08:06Z</time>
      </trkpt>
      <trkpt lat="48.79538" lon="2.23482">
        <ele>98.19</ele>
        <time>2011-01-09T08:08:10Z</time>
      </trkpt>
      <trkpt lat="48.79545" lon="2.23461">
        <ele>95.31</ele>
        <time>2011-01-09T08:08:16Z</time>
      </trkpt>
      <trkpt lat="48.79566" lon="2.23436">
        <ele>96.27</ele>
        <time>2011-01-09T08:08:26Z</time>
      </trkpt>
      <trkpt lat="48.79587" lon="2.23416">
        <ele>96.75</ele>
        <time>2011-01-09T08:08:37Z</time>
      </trkpt>
      <trkpt lat="48.79594" lon="2.23401">
        <ele>92.9</ele>
        <time>2011-01-09T08:08:42Z</time>
      </trkpt>
      <trkpt lat="48.79596" lon="2.23398">
        <ele>96.27</ele>
        <time>2011-01-09T08:08:43Z</time>
      </trkpt>
      <trkpt lat="48.79609" lon="2.23379">
        <ele>96.27</ele>
        <time>2011-01-09T08:08:50Z</time>
      </trkpt>
      <trkpt lat="48.79614" lon="2.23372">
        <ele>94.83</ele>
        <time>2011-01-09T08:08:53Z</time>
      </trkpt>
      <trkpt lat="48.79642" lon="2.23336">
        <ele>94.35</ele>
        <time>2011-01-09T08:09:06Z</time>
      </trkpt>
      <trkpt lat="48.79648" lon="2.2333">
        <ele>96.27</ele>
        <time>2011-01-09T08:09:09Z</time>
      </trkpt>
      <trkpt lat="48.7967" lon="2.23306">
        <ele>95.79</ele>
        <time>2011-01-09T08:09:20Z</time>
      </trkpt>
      <trkpt lat="48.79688" lon="2.23278">
        <ele>96.27</ele>
        <time>2011-01-09T08:09:30Z</time>
      </trkpt>
      <trkpt lat="48.79708" lon="2.23255">
        <ele>94.35</ele>
        <time>2011-01-09T08:09:40Z</time>
      </trkpt>
      <trkpt lat="48.79733" lon="2.23224">
        <ele>95.31</ele>
        <time>2011-01-09T08:09:54Z</time>
      </trkpt>
      <trkpt lat="48.79739" lon="2.2322">
        <ele>95.79</ele>
        <time>2011-01-09T08:09:57Z</time>
      </trkpt>
      <trkpt lat="48.79742" lon="2.23219">
        <ele>95.79</ele>
        <time>2011-01-09T08:09:59Z</time>
      </trkpt>
      <trkpt lat="48.79742" lon="2.2321">
        <ele>96.27</ele>
        <time>2011-01-09T08:10:04Z</time>
      </trkpt>
      <trkpt lat="48.79742" lon="2.232">
        <ele>97.23</ele>
        <time>2011-01-09T08:10:09Z</time>
      </trkpt>
      <trkpt lat="48.79742" lon="2.23196">
        <ele>97.71</ele>
        <time>2011-01-09T08:10:11Z</time>
      </trkpt>
      <trkpt lat="48.79754" lon="2.23164">
        <ele>98.67</ele>
        <time>2011-01-09T08:10:25Z</time>
      </trkpt>
      <trkpt lat="48.79758" lon="2.23144">
        <ele>100.11</ele>
        <time>2011-01-09T08:10:31Z</time>
      </trkpt>
      <trkpt lat="48.79763" lon="2.23131">
        <ele>102.04</ele>
        <time>2011-01-09T08:10:36Z</time>
      </trkpt>
      <trkpt lat="48.79766" lon="2.23117">
        <ele>102.04</ele>
        <time>2011-01-09T08:10:41Z</time>
      </trkpt>
      <trkpt lat="48.7977" lon="2.231">
        <ele>103.96</ele>
        <time>2011-01-09T08:10:47Z</time>
      </trkpt>
      <trkpt lat="48.79773" lon="2.23085">
        <ele>104.92</ele>
        <time>2011-01-09T08:10:53Z</time>
      </trkpt>
      <trkpt lat="48.79773" lon="2.23067">
        <ele>105.4</ele>
        <time>2011-01-09T08:11:02Z</time>
      </trkpt>
      <trkpt lat="48.79769" lon="2.2304">
        <ele>106.84</ele>
        <time>2011-01-09T08:11:12Z</time>
      </trkpt>
      <trkpt lat="48.79768" lon="2.23027">
        <ele>106.84</ele>
        <time>2011-01-09T08:11:16Z</time>
      </trkpt>
      <trkpt lat="48.79766" lon="2.23012">
        <ele>107.32</ele>
        <time>2011-01-09T08:11:20Z</time>
      </trkpt>
      <trkpt lat="48.79757" lon="2.22985">
        <ele>107.81</ele>
        <time>2011-01-09T08:11:32Z</time>
      </trkpt>
      <trkpt lat="48.79747" lon="2.2295">
        <ele>109.25</ele>
        <time>2011-01-09T08:11:46Z</time>
      </trkpt>
      <trkpt lat="48.79742" lon="2.22916">
        <ele>111.65</ele>
        <time>2011-01-09T08:11:58Z</time>
      </trkpt>
      <trkpt lat="48.79735" lon="2.22872">
        <ele>113.09</ele>
        <time>2011-01-09T08:12:13Z</time>
      </trkpt>
      <trkpt lat="48.79737" lon="2.22829">
        <ele>113.09</ele>
        <time>2011-01-09T08:12:24Z</time>
      </trkpt>
      <trkpt lat="48.7974" lon="2.22805">
        <ele>114.53</ele>
        <time>2011-01-09T08:12:31Z</time>
      </trkpt>
      <trkpt lat="48.79749" lon="2.22784">
        <ele>115.5</ele>
        <time>2011-01-09T08:12:38Z</time>
      </trkpt>
      <trkpt lat="48.7976" lon="2.22768">
        <ele>117.9</ele>
        <time>2011-01-09T08:12:48Z</time>
      </trkpt>
      <trkpt lat="48.79775" lon="2.22772">
        <ele>119.34</ele>
        <time>2011-01-09T08:12:55Z</time>
      </trkpt>
      <trkpt lat="48.79784" lon="2.2277">
        <ele>120.78</ele>
        <time>2011-01-09T08:13:00Z</time>
      </trkpt>
      <trkpt lat="48.79785" lon="2.22769">
        <ele>121.74</ele>
        <time>2011-01-09T08:13:01Z</time>
      </trkpt>
      <trkpt lat="48.79789" lon="2.22765">
        <ele>122.22</ele>
        <time>2011-01-09T08:13:05Z</time>
      </trkpt>
      <trkpt lat="48.79795" lon="2.22759">
        <ele>124.15</ele>
        <time>2011-01-09T08:13:11Z</time>
      </trkpt>
      <trkpt lat="48.79816" lon="2.2276">
        <ele>127.03</ele>
        <time>2011-01-09T08:13:23Z</time>
      </trkpt>
      <trkpt lat="48.79824" lon="2.22763">
        <ele>128.95</ele>
        <time>2011-01-09T08:13:28Z</time>
      </trkpt>
      <trkpt lat="48.79839" lon="2.22771">
        <ele>132.32</ele>
        <time>2011-01-09T08:13:39Z</time>
      </trkpt>
      <trkpt lat="48.7986" lon="2.22779">
        <ele>135.68</ele>
        <time>2011-01-09T08:13:53Z</time>
      </trkpt>
      <trkpt lat="48.79864" lon="2.2278">
        <ele>138.09</ele>
        <time>2011-01-09T08:14:00Z</time>
      </trkpt>
      <trkpt lat="48.79869" lon="2.22784">
        <ele>141.45</ele>
        <time>2011-01-09T08:14:07Z</time>
      </trkpt>
      <trkpt lat="48.7987" lon="2.22784">
        <ele>141.45</ele>
        <time>2011-01-09T08:14:08Z</time>
      </trkpt>
      <trkpt lat="48.79877" lon="2.22788">
        <ele>144.82</ele>
        <time>2011-01-09T08:14:16Z</time>
      </trkpt>
      <trkpt lat="48.79881" lon="2.22785">
        <ele>148.18</ele>
        <time>2011-01-09T08:14:23Z</time>
      </trkpt>
      <trkpt lat="48.79889" lon="2.22785">
        <ele>149.62</ele>
        <time>2011-01-09T08:14:30Z</time>
      </trkpt>
      <trkpt lat="48.79905" lon="2.22799">
        <ele>152.03</ele>
        <time>2011-01-09T08:14:45Z</time>
      </trkpt>
      <trkpt lat="48.79909" lon="2.22801">
        <ele>152.03</ele>
        <time>2011-01-09T08:14:50Z</time>
      </trkpt>
      <trkpt lat="48.79913" lon="2.228">
        <ele>153.47</ele>
        <time>2011-01-09T08:14:54Z</time>
      </trkpt>
      <trkpt lat="48.7992" lon="2.22784">
        <ele>154.91</ele>
        <time>2011-01-09T08:15:04Z</time>
      </trkpt>
      <trkpt lat="48.79924" lon="2.22776">
        <ele>154.91</ele>
        <time>2011-01-09T08:15:09Z</time>
      </trkpt>
      <trkpt lat="48.79935" lon="2.22759">
        <ele>155.39</ele>
        <time>2011-01-09T08:15:19Z</time>
      </trkpt>
      <trkpt lat="48.79944" lon="2.22743">
        <ele>155.87</ele>
        <time>2011-01-09T08:15:27Z</time>
      </trkpt>
      <trkpt lat="48.79946" lon="2.22716">
        <ele>156.35</ele>
        <time>2011-01-09T08:15:38Z</time>
      </trkpt>
      <trkpt lat="48.79948" lon="2.22695">
        <ele>156.83</ele>
        <time>2011-01-09T08:15:47Z</time>
      </trkpt>
      <trkpt lat="48.79948" lon="2.22654">
        <ele>157.79</ele>
        <time>2011-01-09T08:16:01Z</time>
      </trkpt>
      <trkpt lat="48.7995" lon="2.22616">
        <ele>156.83</ele>
        <time>2011-01-09T08:16:13Z</time>
      </trkpt>
      <trkpt lat="48.79952" lon="2.22584">
        <ele>157.31</ele>
        <time>2011-01-09T08:16:25Z</time>
      </trkpt>
      <trkpt lat="48.79953" lon="2.22572">
        <ele>157.79</ele>
        <time>2011-01-09T08:16:29Z</time>
      </trkpt>
      <trkpt lat="48.79953" lon="2.22558">
        <ele>158.75</ele>
        <time>2011-01-09T08:16:34Z</time>
      </trkpt>
      <trkpt lat="48.79951" lon="2.22527">
        <ele>158.27</ele>
        <time>2011-01-09T08:16:45Z</time>
      </trkpt>
      <trkpt lat="48.79953" lon="2.22488">
        <ele>159.72</ele>
        <time>2011-01-09T08:16:58Z</time>
      </trkpt>
      <trkpt lat="48.79956" lon="2.22459">
        <ele>159.72</ele>
        <time>2011-01-09T08:17:09Z</time>
      </trkpt>
      <trkpt lat="48.79955" lon="2.22436">
        <ele>159.72</ele>
        <time>2011-01-09T08:17:16Z</time>
      </trkpt>
      <trkpt lat="48.79953" lon="2.22427">
        <ele>159.72</ele>
        <time>2011-01-09T08:17:20Z</time>
      </trkpt>
      <trkpt lat="48.79953" lon="2.22408">
        <ele>159.72</ele>
        <time>2011-01-09T08:17:26Z</time>
      </trkpt>
      <trkpt lat="48.79954" lon="2.22375">
        <ele>159.72</ele>
        <time>2011-01-09T08:17:38Z</time>
      </trkpt>
      <trkpt lat="48.79954" lon="2.22366">
        <ele>159.72</ele>
        <time>2011-01-09T08:17:41Z</time>
      </trkpt>
      <trkpt lat="48.79957" lon="2.22347">
        <ele>160.2</ele>
        <time>2011-01-09T08:17:46Z</time>
      </trkpt>
      <trkpt lat="48.79959" lon="2.22305">
        <ele>160.2</ele>
        <time>2011-01-09T08:17:58Z</time>
      </trkpt>
      <trkpt lat="48.79959" lon="2.223">
        <ele>160.68</ele>
        <time>2011-01-09T08:18:00Z</time>
      </trkpt>
      <trkpt lat="48.79959" lon="2.22294">
        <ele>160.2</ele>
        <time>2011-01-09T08:18:02Z</time>
      </trkpt>
      <trkpt lat="48.79961" lon="2.22265">
        <ele>160.68</ele>
        <time>2011-01-09T08:18:12Z</time>
      </trkpt>
      <trkpt lat="48.79962" lon="2.22249">
        <ele>159.72</ele>
        <time>2011-01-09T08:18:17Z</time>
      </trkpt>
      <trkpt lat="48.79969" lon="2.22228">
        <ele>161.64</ele>
        <time>2011-01-09T08:18:24Z</time>
      </trkpt>
      <trkpt lat="48.7997" lon="2.22187">
        <ele>161.16</ele>
        <time>2011-01-09T08:18:37Z</time>
      </trkpt>
      <trkpt lat="48.79971" lon="2.22179">
        <ele>160.68</ele>
        <time>2011-01-09T08:18:40Z</time>
      </trkpt>
      <trkpt lat="48.79975" lon="2.22133">
        <ele>161.16</ele>
        <time>2011-01-09T08:18:55Z</time>
      </trkpt>
      <trkpt lat="48.79975" lon="2.22122">
        <ele>161.16</ele>
        <time>2011-01-09T08:18:58Z</time>
      </trkpt>
      <trkpt lat="48.79977" lon="2.22109">
        <ele>160.68</ele>
        <time>2011-01-09T08:19:02Z</time>
      </trkpt>
      <trkpt lat="48.79977" lon="2.22083">
        <ele>161.64</ele>
        <time>2011-01-09T08:19:10Z</time>
      </trkpt>
      <trkpt lat="48.79978" lon="2.22058">
        <ele>161.64</ele>
        <time>2011-01-09T08:19:17Z</time>
      </trkpt>
      <trkpt lat="48.79981" lon="2.22026">
        <ele>160.68</ele>
        <time>2011-01-09T08:19:27Z</time>
      </trkpt>
      <trkpt lat="48.79981" lon="2.21983">
        <ele>161.64</ele>
        <time>2011-01-09T08:19:40Z</time>
      </trkpt>
      <trkpt lat="48.79982" lon="2.21972">
        <ele>161.64</ele>
        <time>2011-01-09T08:19:43Z</time>
      </trkpt>
      <trkpt lat="48.79982" lon="2.21962">
        <ele>161.16</ele>
        <time>2011-01-09T08:19:46Z</time>
      </trkpt>
      <trkpt lat="48.79983" lon="2.21915">
        <ele>160.68</ele>
        <time>2011-01-09T08:19:58Z</time>
      </trkpt>
      <trkpt lat="48.79985" lon="2.21875">
        <ele>160.68</ele>
        <time>2011-01-09T08:20:09Z</time>
      </trkpt>
      <trkpt lat="48.79988" lon="2.2183">
        <ele>159.72</ele>
        <time>2011-01-09T08:20:21Z</time>
      </trkpt>
      <trkpt lat="48.7999" lon="2.21778">
        <ele>159.24</ele>
        <time>2011-01-09T08:20:35Z</time>
      </trkpt>
      <trkpt lat="48.79991" lon="2.21738">
        <ele>159.24</ele>
        <time>2011-01-09T08:20:47Z</time>
      </trkpt>
      <trkpt lat="48.7999" lon="2.21698">
        <ele>159.72</ele>
        <time>2011-01-09T08:20:58Z</time>
      </trkpt>
      <trkpt lat="48.79994" lon="2.21671">
        <ele>158.75</ele>
        <time>2011-01-09T08:21:08Z</time>
      </trkpt>
      <trkpt lat="48.79996" lon="2.21659">
        <ele>158.75</ele>
        <time>2011-01-09T08:21:12Z</time>
      </trkpt>
      <trkpt lat="48.79997" lon="2.21645">
        <ele>159.72</ele>
        <time>2011-01-09T08:21:17Z</time>
      </trkpt>
      <trkpt lat="48.80019" lon="2.21607">
        <ele>159.24</ele>
        <time>2011-01-09T08:21:31Z</time>
      </trkpt>
      <trkpt lat="48.8002" lon="2.21605">
        <ele>159.24</ele>
        <time>2011-01-09T08:21:32Z</time>
      </trkpt>
      <trkpt lat="48.80051" lon="2.21628">
        <ele>160.2</ele>
        <time>2011-01-09T08:21:45Z</time>
      </trkpt>
      <trkpt lat="48.80068" lon="2.21647">
        <ele>160.68</ele>
        <time>2011-01-09T08:21:53Z</time>
      </trkpt>
      <trkpt lat="48.80069" lon="2.21649">
        <ele>160.2</ele>
        <time>2011-01-09T08:21:54Z</time>
      </trkpt>
      <trkpt lat="48.80067" lon="2.21652">
        <ele>159.72</ele>
        <time>2011-01-09T08:21:59Z</time>
      </trkpt>
      <trkpt lat="48.80039" lon="2.21631">
        <ele>159.24</ele>
        <time>2011-01-09T08:22:13Z</time>
      </trkpt>
      <trkpt lat="48.80003" lon="2.21635">
        <ele>160.2</ele>
        <time>2011-01-09T08:22:28Z</time>
      </trkpt>
      <trkpt lat="48.79979" lon="2.21644">
        <ele>159.24</ele>
        <time>2011-01-09T08:22:41Z</time>
      </trkpt>
      <trkpt lat="48.79952" lon="2.21668">
        <ele>158.27</ele>
        <time>2011-01-09T08:22:55Z</time>
      </trkpt>
      <trkpt lat="48.79934" lon="2.21693">
        <ele>156.35</ele>
        <time>2011-01-09T08:23:07Z</time>
      </trkpt>
      <trkpt lat="48.79933" lon="2.21696">
        <ele>156.35</ele>
        <time>2011-01-09T08:23:08Z</time>
      </trkpt>
      <trkpt lat="48.79915" lon="2.21717">
        <ele>155.87</ele>
        <time>2011-01-09T08:23:18Z</time>
      </trkpt>
      <trkpt lat="48.79892" lon="2.21749">
        <ele>153.95</ele>
        <time>2011-01-09T08:23:30Z</time>
      </trkpt>
      <trkpt lat="48.79867" lon="2.2178">
        <ele>151.06</ele>
        <time>2011-01-09T08:23:42Z</time>
      </trkpt>
      <trkpt lat="48.79841" lon="2.21819">
        <ele>149.14</ele>
        <time>2011-01-09T08:23:56Z</time>
      </trkpt>
      <trkpt lat="48.79839" lon="2.21822">
        <ele>148.18</ele>
        <time>2011-01-09T08:23:57Z</time>
      </trkpt>
      <trkpt lat="48.79823" lon="2.21835">
        <ele>147.7</ele>
        <time>2011-01-09T08:24:03Z</time>
      </trkpt>
      <trkpt lat="48.79813" lon="2.21836">
        <ele>147.7</ele>
        <time>2011-01-09T08:24:07Z</time>
      </trkpt>
      <trkpt lat="48.79806" lon="2.21828">
        <ele>148.18</ele>
        <time>2011-01-09T08:24:12Z</time>
      </trkpt>
      <trkpt lat="48.79807" lon="2.21796">
        <ele>149.14</ele>
        <time>2011-01-09T08:24:23Z</time>
      </trkpt>
      <trkpt lat="48.79809" lon="2.21749">
        <ele>149.14</ele>
        <time>2011-01-09T08:24:37Z</time>
      </trkpt>
      <trkpt lat="48.79811" lon="2.21731">
        <ele>149.62</ele>
        <time>2011-01-09T08:24:42Z</time>
      </trkpt>
      <trkpt lat="48.79813" lon="2.21694">
        <ele>149.62</ele>
        <time>2011-01-09T08:24:53Z</time>
      </trkpt>
      <trkpt lat="48.79817" lon="2.21676">
        <ele>150.1</ele>
        <time>2011-01-09T08:24:59Z</time>
      </trkpt>
      <trkpt lat="48.79818" lon="2.21672">
        <ele>150.58</ele>
        <time>2011-01-09T08:25:01Z</time>
      </trkpt>
      <trkpt lat="48.79818" lon="2.21662">
        <ele>151.06</ele>
        <time>2011-01-09T08:25:07Z</time>
      </trkpt>
      <trkpt lat="48.79823" lon="2.21611">
        <ele>152.03</ele>
        <time>2011-01-09T08:25:20Z</time>
      </trkpt>
      <trkpt lat="48.79824" lon="2.21601">
        <ele>152.51</ele>
        <time>2011-01-09T08:25:23Z</time>
      </trkpt>
      <trkpt lat="48.79828" lon="2.2158">
        <ele>153.47</ele>
        <time>2011-01-09T08:25:29Z</time>
      </trkpt>
      <trkpt lat="48.7984" lon="2.21549">
        <ele>156.35</ele>
        <time>2011-01-09T08:25:41Z</time>
      </trkpt>
      <trkpt lat="48.79853" lon="2.21514">
        <ele>158.75</ele>
        <time>2011-01-09T08:25:55Z</time>
      </trkpt>
      <trkpt lat="48.79865" lon="2.21487">
        <ele>159.72</ele>
        <time>2011-01-09T08:26:06Z</time>
      </trkpt>
      <trkpt lat="48.79869" lon="2.21472">
        <ele>159.72</ele>
        <time>2011-01-09T08:26:11Z</time>
      </trkpt>
      <trkpt lat="48.79851" lon="2.21459">
        <ele>159.72</ele>
        <time>2011-01-09T08:26:23Z</time>
      </trkpt>
      <trkpt lat="48.79823" lon="2.21447">
        <ele>159.72</ele>
        <time>2011-01-09T08:26:37Z</time>
      </trkpt>
      <trkpt lat="48.79796" lon="2.21426">
        <ele>160.2</ele>
        <time>2011-01-09T08:26:51Z</time>
      </trkpt>
      <trkpt lat="48.79769" lon="2.21402">
        <ele>160.68</ele>
        <time>2011-01-09T08:27:05Z</time>
      </trkpt>
      <trkpt lat="48.79746" lon="2.21376">
        <ele>161.16</ele>
        <time>2011-01-09T08:27:19Z</time>
      </trkpt>
      <trkpt lat="48.79723" lon="2.21355">
        <ele>162.12</ele>
        <time>2011-01-09T08:27:32Z</time>
      </trkpt>
      <trkpt lat="48.79697" lon="2.21328">
        <ele>163.08</ele>
        <time>2011-01-09T08:27:46Z</time>
      </trkpt>
      <trkpt lat="48.79674" lon="2.21307">
        <ele>162.6</ele>
        <time>2011-01-09T08:27:58Z</time>
      </trkpt>
      <trkpt lat="48.79649" lon="2.2128">
        <ele>163.08</ele>
        <time>2011-01-09T08:28:12Z</time>
      </trkpt>
      <trkpt lat="48.79644" lon="2.21273">
        <ele>163.56</ele>
        <time>2011-01-09T08:28:15Z</time>
      </trkpt>
      <trkpt lat="48.79634" lon="2.21264">
        <ele>164.04</ele>
        <time>2011-01-09T08:28:20Z</time>
      </trkpt>
      <trkpt lat="48.7961" lon="2.21237">
        <ele>163.56</ele>
        <time>2011-01-09T08:28:35Z</time>
      </trkpt>
      <trkpt lat="48.79591" lon="2.21217">
        <ele>163.56</ele>
        <time>2011-01-09T08:28:45Z</time>
      </trkpt>
      <trkpt lat="48.79581" lon="2.21208">
        <ele>163.56</ele>
        <time>2011-01-09T08:28:50Z</time>
      </trkpt>
      <trkpt lat="48.79573" lon="2.21202">
        <ele>163.08</ele>
        <time>2011-01-09T08:28:54Z</time>
      </trkpt>
      <trkpt lat="48.79538" lon="2.21171">
        <ele>163.56</ele>
        <time>2011-01-09T08:29:09Z</time>
      </trkpt>
      <trkpt lat="48.79521" lon="2.21156">
        <ele>164.04</ele>
        <time>2011-01-09T08:29:17Z</time>
      </trkpt>
      <trkpt lat="48.79496" lon="2.21125">
        <ele>163.08</ele>
        <time>2011-01-09T08:29:32Z</time>
      </trkpt>
      <trkpt lat="48.79469" lon="2.21103">
        <ele>163.56</ele>
        <time>2011-01-09T08:29:46Z</time>
      </trkpt>
      <trkpt lat="48.79451" lon="2.21083">
        <ele>164.04</ele>
        <time>2011-01-09T08:29:54Z</time>
      </trkpt>
      <trkpt lat="48.79421" lon="2.21053">
        <ele>163.56</ele>
        <time>2011-01-09T08:30:08Z</time>
      </trkpt>
      <trkpt lat="48.79391" lon="2.21027">
        <ele>163.08</ele>
        <time>2011-01-09T08:30:21Z</time>
      </trkpt>
      <trkpt lat="48.79367" lon="2.21017">
        <ele>164.04</ele>
        <time>2011-01-09T08:30:32Z</time>
      </trkpt>
      <trkpt lat="48.79337" lon="2.21029">
        <ele>164.52</ele>
        <time>2011-01-09T08:30:47Z</time>
      </trkpt>
      <trkpt lat="48.79335" lon="2.2103">
        <ele>164.04</ele>
        <time>2011-01-09T08:30:48Z</time>
      </trkpt>
      <trkpt lat="48.79302" lon="2.21046">
        <ele>164.04</ele>
        <time>2011-01-09T08:31:04Z</time>
      </trkpt>
      <trkpt lat="48.7927" lon="2.21064">
        <ele>165</ele>
        <time>2011-01-09T08:31:18Z</time>
      </trkpt>
      <trkpt lat="48.79235" lon="2.21085">
        <ele>164.52</ele>
        <time>2011-01-09T08:31:33Z</time>
      </trkpt>
      <trkpt lat="48.79206" lon="2.21106">
        <ele>165.48</ele>
        <time>2011-01-09T08:31:46Z</time>
      </trkpt>
      <trkpt lat="48.79199" lon="2.21111">
        <ele>165.48</ele>
        <time>2011-01-09T08:31:49Z</time>
      </trkpt>
      <trkpt lat="48.79171" lon="2.21127">
        <ele>165.96</ele>
        <time>2011-01-09T08:32:02Z</time>
      </trkpt>
      <trkpt lat="48.79142" lon="2.21144">
        <ele>165.48</ele>
        <time>2011-01-09T08:32:14Z</time>
      </trkpt>
      <trkpt lat="48.79131" lon="2.21153">
        <ele>166.45</ele>
        <time>2011-01-09T08:32:19Z</time>
      </trkpt>
      <trkpt lat="48.79125" lon="2.21203">
        <ele>166.93</ele>
        <time>2011-01-09T08:32:33Z</time>
      </trkpt>
      <trkpt lat="48.79117" lon="2.21239">
        <ele>167.89</ele>
        <time>2011-01-09T08:32:43Z</time>
      </trkpt>
      <trkpt lat="48.79109" lon="2.2126">
        <ele>167.89</ele>
        <time>2011-01-09T08:32:50Z</time>
      </trkpt>
      <trkpt lat="48.79096" lon="2.21291">
        <ele>169.33</ele>
        <time>2011-01-09T08:33:02Z</time>
      </trkpt>
      <trkpt lat="48.7908" lon="2.21329">
        <ele>169.81</ele>
        <time>2011-01-09T08:33:14Z</time>
      </trkpt>
      <trkpt lat="48.79066" lon="2.2137">
        <ele>170.29</ele>
        <time>2011-01-09T08:33:27Z</time>
      </trkpt>
      <trkpt lat="48.79054" lon="2.21405">
        <ele>170.29</ele>
        <time>2011-01-09T08:33:38Z</time>
      </trkpt>
      <trkpt lat="48.79032" lon="2.21466">
        <ele>170.29</ele>
        <time>2011-01-09T08:33:53Z</time>
      </trkpt>
      <trkpt lat="48.79013" lon="2.21508">
        <ele>169.33</ele>
        <time>2011-01-09T08:34:06Z</time>
      </trkpt>
      <trkpt lat="48.78998" lon="2.21549">
        <ele>169.33</ele>
        <time>2011-01-09T08:34:19Z</time>
      </trkpt>
      <trkpt lat="48.78991" lon="2.21567">
        <ele>169.81</ele>
        <time>2011-01-09T08:34:25Z</time>
      </trkpt>
      <trkpt lat="48.78977" lon="2.21605">
        <ele>169.81</ele>
        <time>2011-01-09T08:34:37Z</time>
      </trkpt>
      <trkpt lat="48.78963" lon="2.21644">
        <ele>168.85</ele>
        <time>2011-01-09T08:34:49Z</time>
      </trkpt>
      <trkpt lat="48.78947" lon="2.21683">
        <ele>169.33</ele>
        <time>2011-01-09T08:35:02Z</time>
      </trkpt>
      <trkpt lat="48.78934" lon="2.21721">
        <ele>168.85</ele>
        <time>2011-01-09T08:35:14Z</time>
      </trkpt>
      <trkpt lat="48.78919" lon="2.21766">
        <ele>167.89</ele>
        <time>2011-01-09T08:35:26Z</time>
      </trkpt>
      <trkpt lat="48.7891" lon="2.21789">
        <ele>167.41</ele>
        <time>2011-01-09T08:35:34Z</time>
      </trkpt>
      <trkpt lat="48.78894" lon="2.21819">
        <ele>167.89</ele>
        <time>2011-01-09T08:35:45Z</time>
      </trkpt>
      <trkpt lat="48.7888" lon="2.21863">
        <ele>166.45</ele>
        <time>2011-01-09T08:35:58Z</time>
      </trkpt>
      <trkpt lat="48.78868" lon="2.21911">
        <ele>166.45</ele>
        <time>2011-01-09T08:36:10Z</time>
      </trkpt>
      <trkpt lat="48.78852" lon="2.21952">
        <ele>165.48</ele>
        <time>2011-01-09T08:36:23Z</time>
      </trkpt>
      <trkpt lat="48.78835" lon="2.21994">
        <ele>165</ele>
        <time>2011-01-09T08:36:36Z</time>
      </trkpt>
      <trkpt lat="48.78822" lon="2.22038">
        <ele>164.52</ele>
        <time>2011-01-09T08:36:49Z</time>
      </trkpt>
      <trkpt lat="48.78805" lon="2.22077">
        <ele>164.04</ele>
        <time>2011-01-09T08:37:02Z</time>
      </trkpt>
      <trkpt lat="48.78797" lon="2.2209">
        <ele>163.56</ele>
        <time>2011-01-09T08:37:07Z</time>
      </trkpt>
      <trkpt lat="48.78789" lon="2.22108">
        <ele>163.56</ele>
        <time>2011-01-09T08:37:13Z</time>
      </trkpt>
      <trkpt lat="48.78776" lon="2.22146">
        <ele>163.08</ele>
        <time>2011-01-09T08:37:25Z</time>
      </trkpt>
      <trkpt lat="48.78774" lon="2.22156">
        <ele>163.56</ele>
        <time>2011-01-09T08:37:28Z</time>
      </trkpt>
      <trkpt lat="48.78771" lon="2.22168">
        <ele>164.04</ele>
        <time>2011-01-09T08:37:33Z</time>
      </trkpt>
      <trkpt lat="48.78766" lon="2.22186">
        <ele>163.56</ele>
        <time>2011-01-09T08:37:38Z</time>
      </trkpt>
      <trkpt lat="48.78747" lon="2.22198">
        <ele>163.08</ele>
        <time>2011-01-09T08:37:46Z</time>
      </trkpt>
      <trkpt lat="48.78734" lon="2.22196">
        <ele>164.04</ele>
        <time>2011-01-09T08:37:51Z</time>
      </trkpt>
      <trkpt lat="48.78706" lon="2.22185">
        <ele>163.56</ele>
        <time>2011-01-09T08:38:04Z</time>
      </trkpt>
      <trkpt lat="48.78683" lon="2.22186">
        <ele>164.04</ele>
        <time>2011-01-09T08:38:14Z</time>
      </trkpt>
      <trkpt lat="48.78671" lon="2.22193">
        <ele>164.04</ele>
        <time>2011-01-09T08:38:20Z</time>
      </trkpt>
      <trkpt lat="48.78639" lon="2.22187">
        <ele>164.52</ele>
        <time>2011-01-09T08:38:35Z</time>
      </trkpt>
      <trkpt lat="48.78632" lon="2.22188">
        <ele>165</ele>
        <time>2011-01-09T08:38:38Z</time>
      </trkpt>
      <trkpt lat="48.78627" lon="2.22198">
        <ele>165.48</ele>
        <time>2011-01-09T08:38:43Z</time>
      </trkpt>
      <trkpt lat="48.78625" lon="2.22238">
        <ele>166.93</ele>
        <time>2011-01-09T08:38:59Z</time>
      </trkpt>
      <trkpt lat="48.7864" lon="2.22289">
        <ele>166.93</ele>
        <time>2011-01-09T08:39:14Z</time>
      </trkpt>
      <trkpt lat="48.78652" lon="2.22321">
        <ele>166.45</ele>
        <time>2011-01-09T08:39:25Z</time>
      </trkpt>
      <trkpt lat="48.78668" lon="2.22354">
        <ele>165</ele>
        <time>2011-01-09T08:39:37Z</time>
      </trkpt>
      <trkpt lat="48.78671" lon="2.2236">
        <ele>164.52</ele>
        <time>2011-01-09T08:39:39Z</time>
      </trkpt>
      <trkpt lat="48.78678" lon="2.22383">
        <ele>163.56</ele>
        <time>2011-01-09T08:39:47Z</time>
      </trkpt>
      <trkpt lat="48.78684" lon="2.22428">
        <ele>164.04</ele>
        <time>2011-01-09T08:40:00Z</time>
      </trkpt>
      <trkpt lat="48.78686" lon="2.22441">
        <ele>164.52</ele>
        <time>2011-01-09T08:40:04Z</time>
      </trkpt>
      <trkpt lat="48.78689" lon="2.22451">
        <ele>164.04</ele>
        <time>2011-01-09T08:40:08Z</time>
      </trkpt>
      <trkpt lat="48.78692" lon="2.22462">
        <ele>164.04</ele>
        <time>2011-01-09T08:40:13Z</time>
      </trkpt>
      <trkpt lat="48.78694" lon="2.22467">
        <ele>164.04</ele>
        <time>2011-01-09T08:40:15Z</time>
      </trkpt>
      <trkpt lat="48.78697" lon="2.22481">
        <ele>164.04</ele>
        <time>2011-01-09T08:40:19Z</time>
      </trkpt>
      <trkpt lat="48.78708" lon="2.2253">
        <ele>164.52</ele>
        <time>2011-01-09T08:40:32Z</time>
      </trkpt>
      <trkpt lat="48.78717" lon="2.22566">
        <ele>165</ele>
        <time>2011-01-09T08:40:42Z</time>
      </trkpt>
      <trkpt lat="48.78728" lon="2.22608">
        <ele>164.52</ele>
        <time>2011-01-09T08:40:52Z</time>
      </trkpt>
      <trkpt lat="48.78733" lon="2.22645">
        <ele>165</ele>
        <time>2011-01-09T08:41:03Z</time>
      </trkpt>
      <trkpt lat="48.78733" lon="2.22661">
        <ele>165.96</ele>
        <time>2011-01-09T08:41:17Z</time>
      </trkpt>
      <trkpt lat="48.78736" lon="2.22676">
        <ele>165.48</ele>
        <time>2011-01-09T08:41:20Z</time>
      </trkpt>
      <trkpt lat="48.78739" lon="2.22692">
        <ele>165.96</ele>
        <time>2011-01-09T08:41:25Z</time>
      </trkpt>
      <trkpt lat="48.78756" lon="2.22729">
        <ele>166.45</ele>
        <time>2011-01-09T08:41:33Z</time>
      </trkpt>
      <trkpt lat="48.78768" lon="2.22757">
        <ele>166.45</ele>
        <time>2011-01-09T08:41:40Z</time>
      </trkpt>
      <trkpt lat="48.78785" lon="2.22786">
        <ele>166.45</ele>
        <time>2011-01-09T08:41:48Z</time>
      </trkpt>
      <trkpt lat="48.78791" lon="2.22809">
        <ele>166.45</ele>
        <time>2011-01-09T08:41:54Z</time>
      </trkpt>
      <trkpt lat="48.7881" lon="2.22863">
        <ele>165.48</ele>
        <time>2011-01-09T08:42:10Z</time>
      </trkpt>
      <trkpt lat="48.78816" lon="2.22892">
        <ele>165.48</ele>
        <time>2011-01-09T08:42:18Z</time>
      </trkpt>
      <trkpt lat="48.7884" lon="2.22955">
        <ele>165</ele>
        <time>2011-01-09T08:42:34Z</time>
      </trkpt>
      <trkpt lat="48.78853" lon="2.23005">
        <ele>163.56</ele>
        <time>2011-01-09T08:42:48Z</time>
      </trkpt>
      <trkpt lat="48.78866" lon="2.23059">
        <ele>163.08</ele>
        <time>2011-01-09T08:43:02Z</time>
      </trkpt>
      <trkpt lat="48.78878" lon="2.23102">
        <ele>161.64</ele>
        <time>2011-01-09T08:43:13Z</time>
      </trkpt>
      <trkpt lat="48.78889" lon="2.23144">
        <ele>161.16</ele>
        <time>2011-01-09T08:43:24Z</time>
      </trkpt>
      <trkpt lat="48.789" lon="2.23177">
        <ele>160.2</ele>
        <time>2011-01-09T08:43:35Z</time>
      </trkpt>
      <trkpt lat="48.78907" lon="2.23213">
        <ele>160.2</ele>
        <time>2011-01-09T08:43:46Z</time>
      </trkpt>
      <trkpt lat="48.78913" lon="2.23263">
        <ele>159.24</ele>
        <time>2011-01-09T08:43:58Z</time>
      </trkpt>
      <trkpt lat="48.78921" lon="2.23324">
        <ele>157.79</ele>
        <time>2011-01-09T08:44:14Z</time>
      </trkpt>
      <trkpt lat="48.78921" lon="2.23343">
        <ele>157.31</ele>
        <time>2011-01-09T08:44:19Z</time>
      </trkpt>
      <trkpt lat="48.78918" lon="2.23392">
        <ele>157.31</ele>
        <time>2011-01-09T08:44:32Z</time>
      </trkpt>
      <trkpt lat="48.78919" lon="2.23407">
        <ele>157.31</ele>
        <time>2011-01-09T08:44:36Z</time>
      </trkpt>
      <trkpt lat="48.78915" lon="2.23458">
        <ele>157.79</ele>
        <time>2011-01-09T08:44:51Z</time>
      </trkpt>
      <trkpt lat="48.78915" lon="2.23462">
        <ele>157.79</ele>
        <time>2011-01-09T08:44:52Z</time>
      </trkpt>
      <trkpt lat="48.7891" lon="2.23498">
        <ele>157.79</ele>
        <time>2011-01-09T08:45:01Z</time>
      </trkpt>
      <trkpt lat="48.78901" lon="2.2354">
        <ele>157.31</ele>
        <time>2011-01-09T08:45:12Z</time>
      </trkpt>
      <trkpt lat="48.78887" lon="2.23585">
        <ele>157.79</ele>
        <time>2011-01-09T08:45:24Z</time>
      </trkpt>
      <trkpt lat="48.78889" lon="2.2363">
        <ele>158.27</ele>
        <time>2011-01-09T08:45:36Z</time>
      </trkpt>
      <trkpt lat="48.78892" lon="2.23637">
        <ele>157.79</ele>
        <time>2011-01-09T08:45:38Z</time>
      </trkpt>
      <trkpt lat="48.78896" lon="2.23649">
        <ele>158.27</ele>
        <time>2011-01-09T08:45:42Z</time>
      </trkpt>
      <trkpt lat="48.78905" lon="2.23666">
        <ele>159.24</ele>
        <time>2011-01-09T08:45:52Z</time>
      </trkpt>
      <trkpt lat="48.78907" lon="2.23672">
        <ele>158.75</ele>
        <time>2011-01-09T08:45:54Z</time>
      </trkpt>
      <trkpt lat="48.78924" lon="2.23724">
        <ele>156.83</ele>
        <time>2011-01-09T08:46:08Z</time>
      </trkpt>
      <trkpt lat="48.78934" lon="2.23763">
        <ele>157.31</ele>
        <time>2011-01-09T08:46:19Z</time>
      </trkpt>
      <trkpt lat="48.78944" lon="2.23795">
        <ele>157.31</ele>
        <time>2011-01-09T08:46:28Z</time>
      </trkpt>
      <trkpt lat="48.78948" lon="2.23824">
        <ele>157.31</ele>
        <time>2011-01-09T08:46:36Z</time>
      </trkpt>
      <trkpt lat="48.78955" lon="2.23867">
        <ele>157.31</ele>
        <time>2011-01-09T08:46:48Z</time>
      </trkpt>
      <trkpt lat="48.7896" lon="2.23901">
        <ele>156.83</ele>
        <time>2011-01-09T08:46:57Z</time>
      </trkpt>
      <trkpt lat="48.78966" lon="2.23932">
        <ele>156.83</ele>
        <time>2011-01-09T08:47:06Z</time>
      </trkpt>
      <trkpt lat="48.78968" lon="2.23948">
        <ele>156.83</ele>
        <time>2011-01-09T08:47:10Z</time>
      </trkpt>
      <trkpt lat="48.78974" lon="2.23976">
        <ele>156.83</ele>
        <time>2011-01-09T08:47:17Z</time>
      </trkpt>
      <trkpt lat="48.7898" lon="2.24001">
        <ele>156.83</ele>
        <time>2011-01-09T08:47:24Z</time>
      </trkpt>
      <trkpt lat="48.78984" lon="2.2402">
        <ele>157.31</ele>
        <time>2011-01-09T08:47:29Z</time>
      </trkpt>
      <trkpt lat="48.78991" lon="2.24055">
        <ele>156.83</ele>
        <time>2011-01-09T08:47:39Z</time>
      </trkpt>
      <trkpt lat="48.78998" lon="2.24089">
        <ele>157.31</ele>
        <time>2011-01-09T08:47:48Z</time>
      </trkpt>
      <trkpt lat="48.79002" lon="2.24135">
        <ele>157.31</ele>
        <time>2011-01-09T08:48:01Z</time>
      </trkpt>
      <trkpt lat="48.79003" lon="2.24174">
        <ele>158.27</ele>
        <time>2011-01-09T08:48:12Z</time>
      </trkpt>
      <trkpt lat="48.79005" lon="2.242">
        <ele>158.75</ele>
        <time>2011-01-09T08:48:19Z</time>
      </trkpt>
      <trkpt lat="48.79012" lon="2.24242">
        <ele>157.79</ele>
        <time>2011-01-09T08:48:31Z</time>
      </trkpt>
      <trkpt lat="48.79021" lon="2.24275">
        <ele>158.27</ele>
        <time>2011-01-09T08:48:41Z</time>
      </trkpt>
      <trkpt lat="48.79024" lon="2.24283">
        <ele>157.79</ele>
        <time>2011-01-09T08:48:43Z</time>
      </trkpt>
      <trkpt lat="48.79031" lon="2.24301">
        <ele>158.27</ele>
        <time>2011-01-09T08:48:48Z</time>
      </trkpt>
      <trkpt lat="48.79039" lon="2.24349">
        <ele>157.79</ele>
        <time>2011-01-09T08:49:01Z</time>
      </trkpt>
      <trkpt lat="48.79047" lon="2.24388">
        <ele>157.31</ele>
        <time>2011-01-09T08:49:12Z</time>
      </trkpt>
      <trkpt lat="48.79053" lon="2.24416">
        <ele>157.31</ele>
        <time>2011-01-09T08:49:19Z</time>
      </trkpt>
      <trkpt lat="48.79057" lon="2.24429">
        <ele>157.79</ele>
        <time>2011-01-09T08:49:23Z</time>
      </trkpt>
      <trkpt lat="48.79062" lon="2.24454">
        <ele>157.79</ele>
        <time>2011-01-09T08:49:31Z</time>
      </trkpt>
      <trkpt lat="48.79064" lon="2.24464">
        <ele>157.31</ele>
        <time>2011-01-09T08:49:34Z</time>
      </trkpt>
      <trkpt lat="48.79064" lon="2.24479">
        <ele>157.79</ele>
        <time>2011-01-09T08:49:39Z</time>
      </trkpt>
      <trkpt lat="48.79065" lon="2.24504">
        <ele>157.31</ele>
        <time>2011-01-09T08:49:46Z</time>
      </trkpt>
      <trkpt lat="48.79072" lon="2.2455">
        <ele>157.79</ele>
        <time>2011-01-09T08:49:59Z</time>
      </trkpt>
      <trkpt lat="48.79072" lon="2.24561">
        <ele>158.27</ele>
        <time>2011-01-09T08:50:02Z</time>
      </trkpt>
      <trkpt lat="48.79077" lon="2.24574">
        <ele>158.27</ele>
        <time>2011-01-09T08:50:07Z</time>
      </trkpt>
      <trkpt lat="48.79083" lon="2.24615">
        <ele>158.27</ele>
        <time>2011-01-09T08:50:19Z</time>
      </trkpt>
      <trkpt lat="48.79092" lon="2.24669">
        <ele>159.24</ele>
        <time>2011-01-09T08:50:35Z</time>
      </trkpt>
      <trkpt lat="48.79098" lon="2.24715">
        <ele>159.24</ele>
        <time>2011-01-09T08:50:48Z</time>
      </trkpt>
      <trkpt lat="48.79104" lon="2.24752">
        <ele>159.72</ele>
        <time>2011-01-09T08:50:59Z</time>
      </trkpt>
      <trkpt lat="48.79109" lon="2.24794">
        <ele>159.72</ele>
        <time>2011-01-09T08:51:11Z</time>
      </trkpt>
      <trkpt lat="48.79112" lon="2.24833">
        <ele>160.2</ele>
        <time>2011-01-09T08:51:22Z</time>
      </trkpt>
      <trkpt lat="48.79121" lon="2.24883">
        <ele>160.2</ele>
        <time>2011-01-09T08:51:37Z</time>
      </trkpt>
      <trkpt lat="48.79128" lon="2.24926">
        <ele>159.72</ele>
        <time>2011-01-09T08:51:49Z</time>
      </trkpt>
      <trkpt lat="48.79138" lon="2.24975">
        <ele>158.75</ele>
        <time>2011-01-09T08:52:02Z</time>
      </trkpt>
      <trkpt lat="48.79145" lon="2.25">
        <ele>158.27</ele>
        <time>2011-01-09T08:52:09Z</time>
      </trkpt>
      <trkpt lat="48.7915" lon="2.2502">
        <ele>157.79</ele>
        <time>2011-01-09T08:52:15Z</time>
      </trkpt>
      <trkpt lat="48.79164" lon="2.25064">
        <ele>156.35</ele>
        <time>2011-01-09T08:52:28Z</time>
      </trkpt>
      <trkpt lat="48.79175" lon="2.25085">
        <ele>157.31</ele>
        <time>2011-01-09T08:52:37Z</time>
      </trkpt>
      <trkpt lat="48.79192" lon="2.25109">
        <ele>157.31</ele>
        <time>2011-01-09T08:52:49Z</time>
      </trkpt>
      <trkpt lat="48.79213" lon="2.25127">
        <ele>157.31</ele>
        <time>2011-01-09T08:53:01Z</time>
      </trkpt>
      <trkpt lat="48.79233" lon="2.25144">
        <ele>157.79</ele>
        <time>2011-01-09T08:53:12Z</time>
      </trkpt>
      <trkpt lat="48.79261" lon="2.25174">
        <ele>157.79</ele>
        <time>2011-01-09T08:53:25Z</time>
      </trkpt>
      <trkpt lat="48.79286" lon="2.25185">
        <ele>158.75</ele>
        <time>2011-01-09T08:53:37Z</time>
      </trkpt>
      <trkpt lat="48.79306" lon="2.2518">
        <ele>159.24</ele>
        <time>2011-01-09T08:53:48Z</time>
      </trkpt>
      <trkpt lat="48.79331" lon="2.25171">
        <ele>159.72</ele>
        <time>2011-01-09T08:54:00Z</time>
      </trkpt>
      <trkpt lat="48.7936" lon="2.25162">
        <ele>160.2</ele>
        <time>2011-01-09T08:54:13Z</time>
      </trkpt>
      <trkpt lat="48.79392" lon="2.25167">
        <ele>161.16</ele>
        <time>2011-01-09T08:54:26Z</time>
      </trkpt>
      <trkpt lat="48.79426" lon="2.25171">
        <ele>161.16</ele>
        <time>2011-01-09T08:54:40Z</time>
      </trkpt>
      <trkpt lat="48.79431" lon="2.25171">
        <ele>160.68</ele>
        <time>2011-01-09T08:54:42Z</time>
      </trkpt>
      <trkpt lat="48.7946" lon="2.25168">
        <ele>161.16</ele>
        <time>2011-01-09T08:54:54Z</time>
      </trkpt>
      <trkpt lat="48.7947" lon="2.25157">
        <ele>161.16</ele>
        <time>2011-01-09T08:55:00Z</time>
      </trkpt>
      <trkpt lat="48.79478" lon="2.25148">
        <ele>161.16</ele>
        <time>2011-01-09T08:55:05Z</time>
      </trkpt>
      <trkpt lat="48.79483" lon="2.25141">
        <ele>161.16</ele>
        <time>2011-01-09T08:55:08Z</time>
      </trkpt>
      <trkpt lat="48.79486" lon="2.25137">
        <ele>160.2</ele>
        <time>2011-01-09T08:55:10Z</time>
      </trkpt>
      <trkpt lat="48.795" lon="2.25141">
        <ele>159.72</ele>
        <time>2011-01-09T08:55:17Z</time>
      </trkpt>
      <trkpt lat="48.79524" lon="2.25147">
        <ele>159.72</ele>
        <time>2011-01-09T08:55:26Z</time>
      </trkpt>
      <trkpt lat="48.79539" lon="2.2516">
        <ele>159.24</ele>
        <time>2011-01-09T08:55:35Z</time>
      </trkpt>
      <trkpt lat="48.79565" lon="2.25162">
        <ele>158.75</ele>
        <time>2011-01-09T08:55:44Z</time>
      </trkpt>
      <trkpt lat="48.79583" lon="2.2516">
        <ele>158.75</ele>
        <time>2011-01-09T08:55:53Z</time>
      </trkpt>
      <trkpt lat="48.79588" lon="2.25164">
        <ele>158.75</ele>
        <time>2011-01-09T08:55:55Z</time>
      </trkpt>
      <trkpt lat="48.79592" lon="2.25169">
        <ele>158.27</ele>
        <time>2011-01-09T08:55:58Z</time>
      </trkpt>
      <trkpt lat="48.79613" lon="2.25162">
        <ele>159.24</ele>
        <time>2011-01-09T08:56:08Z</time>
      </trkpt>
      <trkpt lat="48.79631" lon="2.2517">
        <ele>158.75</ele>
        <time>2011-01-09T08:56:17Z</time>
      </trkpt>
      <trkpt lat="48.79648" lon="2.25187">
        <ele>158.27</ele>
        <time>2011-01-09T08:56:24Z</time>
      </trkpt>
      <trkpt lat="48.79659" lon="2.25195">
        <ele>158.75</ele>
        <time>2011-01-09T08:56:28Z</time>
      </trkpt>
      <trkpt lat="48.79668" lon="2.25208">
        <ele>158.27</ele>
        <time>2011-01-09T08:56:32Z</time>
      </trkpt>
      <trkpt lat="48.79674" lon="2.25217">
        <ele>158.75</ele>
        <time>2011-01-09T08:56:36Z</time>
      </trkpt>
      <trkpt lat="48.79687" lon="2.25217">
        <ele>158.75</ele>
        <time>2011-01-09T08:56:43Z</time>
      </trkpt>
      <trkpt lat="48.79711" lon="2.25212">
        <ele>157.79</ele>
        <time>2011-01-09T08:56:55Z</time>
      </trkpt>
      <trkpt lat="48.79722" lon="2.25217">
        <ele>158.27</ele>
        <time>2011-01-09T08:56:59Z</time>
      </trkpt>
      <trkpt lat="48.79744" lon="2.25238">
        <ele>157.79</ele>
        <time>2011-01-09T08:57:12Z</time>
      </trkpt>
      <trkpt lat="48.79748" lon="2.2524">
        <ele>157.79</ele>
        <time>2011-01-09T08:57:14Z</time>
      </trkpt>
      <trkpt lat="48.79769" lon="2.25263">
        <ele>156.83</ele>
        <time>2011-01-09T08:57:25Z</time>
      </trkpt>
      <trkpt lat="48.7978" lon="2.25278">
        <ele>156.83</ele>
        <time>2011-01-09T08:57:30Z</time>
      </trkpt>
      <trkpt lat="48.79803" lon="2.25283">
        <ele>156.35</ele>
        <time>2011-01-09T08:57:44Z</time>
      </trkpt>
      <trkpt lat="48.79811" lon="2.25283">
        <ele>156.35</ele>
        <time>2011-01-09T08:57:47Z</time>
      </trkpt>
      <trkpt lat="48.79836" lon="2.25287">
        <ele>155.87</ele>
        <time>2011-01-09T08:57:58Z</time>
      </trkpt>
      <trkpt lat="48.79868" lon="2.25288">
        <ele>155.39</ele>
        <time>2011-01-09T08:58:09Z</time>
      </trkpt>
      <trkpt lat="48.79898" lon="2.25303">
        <ele>155.39</ele>
        <time>2011-01-09T08:58:22Z</time>
      </trkpt>
      <trkpt lat="48.79913" lon="2.25305">
        <ele>155.39</ele>
        <time>2011-01-09T08:58:30Z</time>
      </trkpt>
      <trkpt lat="48.79921" lon="2.25306">
        <ele>155.39</ele>
        <time>2011-01-09T08:58:35Z</time>
      </trkpt>
      <trkpt lat="48.79945" lon="2.25339">
        <ele>154.91</ele>
        <time>2011-01-09T08:58:47Z</time>
      </trkpt>
      <trkpt lat="48.79947" lon="2.25342">
        <ele>154.43</ele>
        <time>2011-01-09T08:58:48Z</time>
      </trkpt>
      <trkpt lat="48.79954" lon="2.25351">
        <ele>154.91</ele>
        <time>2011-01-09T08:58:53Z</time>
      </trkpt>
      <trkpt lat="48.79963" lon="2.25356">
        <ele>154.43</ele>
        <time>2011-01-09T08:58:58Z</time>
      </trkpt>
      <trkpt lat="48.79988" lon="2.25364">
        <ele>154.43</ele>
        <time>2011-01-09T08:59:11Z</time>
      </trkpt>
      <trkpt lat="48.80019" lon="2.25383">
        <ele>153.47</ele>
        <time>2011-01-09T08:59:26Z</time>
      </trkpt>
      <trkpt lat="48.80048" lon="2.25407">
        <ele>153.47</ele>
        <time>2011-01-09T08:59:38Z</time>
      </trkpt>
      <trkpt lat="48.80069" lon="2.25421">
        <ele>152.99</ele>
        <time>2011-01-09T08:59:48Z</time>
      </trkpt>
      <trkpt lat="48.80094" lon="2.25444">
        <ele>151.06</ele>
        <time>2011-01-09T09:00:00Z</time>
      </trkpt>
      <trkpt lat="48.80106" lon="2.25451">
        <ele>150.58</ele>
        <time>2011-01-09T09:00:05Z</time>
      </trkpt>
      <trkpt lat="48.80115" lon="2.25457">
        <ele>149.62</ele>
        <time>2011-01-09T09:00:09Z</time>
      </trkpt>
      <trkpt lat="48.80123" lon="2.25465">
        <ele>148.18</ele>
        <time>2011-01-09T09:00:13Z</time>
      </trkpt>
      <trkpt lat="48.80143" lon="2.25482">
        <ele>145.3</ele>
        <time>2011-01-09T09:00:23Z</time>
      </trkpt>
      <trkpt lat="48.80163" lon="2.25498">
        <ele>143.37</ele>
        <time>2011-01-09T09:00:32Z</time>
      </trkpt>
      <trkpt lat="48.80186" lon="2.25521">
        <ele>140.01</ele>
        <time>2011-01-09T09:00:42Z</time>
      </trkpt>
      <trkpt lat="48.80195" lon="2.25531">
        <ele>137.61</ele>
        <time>2011-01-09T09:00:48Z</time>
      </trkpt>
      <trkpt lat="48.80202" lon="2.2554">
        <ele>136.64</ele>
        <time>2011-01-09T09:00:54Z</time>
      </trkpt>
      <trkpt lat="48.80211" lon="2.25548">
        <ele>133.28</ele>
        <time>2011-01-09T09:01:01Z</time>
      </trkpt>
      <trkpt lat="48.80217" lon="2.25553">
        <ele>131.84</ele>
        <time>2011-01-09T09:01:05Z</time>
      </trkpt>
      <trkpt lat="48.80234" lon="2.25578">
        <ele>130.4</ele>
        <time>2011-01-09T09:01:15Z</time>
      </trkpt>
      <trkpt lat="48.8025" lon="2.25592">
        <ele>128.47</ele>
        <time>2011-01-09T09:01:21Z</time>
      </trkpt>
      <trkpt lat="48.80265" lon="2.25602">
        <ele>127.03</ele>
        <time>2011-01-09T09:01:27Z</time>
      </trkpt>
      <trkpt lat="48.80292" lon="2.25629">
        <ele>124.63</ele>
        <time>2011-01-09T09:01:39Z</time>
      </trkpt>
      <trkpt lat="48.80309" lon="2.25646">
        <ele>122.71</ele>
        <time>2011-01-09T09:01:50Z</time>
      </trkpt>
      <trkpt lat="48.80317" lon="2.25654">
        <ele>121.74</ele>
        <time>2011-01-09T09:01:54Z</time>
      </trkpt>
      <trkpt lat="48.80324" lon="2.25663">
        <ele>121.74</ele>
        <time>2011-01-09T09:01:59Z</time>
      </trkpt>
      <trkpt lat="48.8033" lon="2.25663">
        <ele>121.26</ele>
        <time>2011-01-09T09:02:02Z</time>
      </trkpt>
      <trkpt lat="48.80343" lon="2.25676">
        <ele>119.82</ele>
        <time>2011-01-09T09:02:08Z</time>
      </trkpt>
      <trkpt lat="48.80357" lon="2.25721">
        <ele>120.3</ele>
        <time>2011-01-09T09:02:19Z</time>
      </trkpt>
      <trkpt lat="48.80375" lon="2.25747">
        <ele>118.38</ele>
        <time>2011-01-09T09:02:31Z</time>
      </trkpt>
      <trkpt lat="48.80399" lon="2.25773">
        <ele>117.9</ele>
        <time>2011-01-09T09:02:43Z</time>
      </trkpt>
      <trkpt lat="48.80417" lon="2.2579">
        <ele>116.46</ele>
        <time>2011-01-09T09:02:51Z</time>
      </trkpt>
      <trkpt lat="48.80425" lon="2.25796">
        <ele>115.98</ele>
        <time>2011-01-09T09:02:55Z</time>
      </trkpt>
      <trkpt lat="48.80449" lon="2.25821">
        <ele>115.98</ele>
        <time>2011-01-09T09:03:07Z</time>
      </trkpt>
      <trkpt lat="48.80458" lon="2.2583">
        <ele>115.01</ele>
        <time>2011-01-09T09:03:11Z</time>
      </trkpt>
      <trkpt lat="48.80466" lon="2.25841">
        <ele>115.01</ele>
        <time>2011-01-09T09:03:15Z</time>
      </trkpt>
      <trkpt lat="48.80489" lon="2.25867">
        <ele>113.57</ele>
        <time>2011-01-09T09:03:27Z</time>
      </trkpt>
      <trkpt lat="48.80497" lon="2.25876">
        <ele>113.57</ele>
        <time>2011-01-09T09:03:31Z</time>
      </trkpt>
      <trkpt lat="48.80515" lon="2.25894">
        <ele>112.61</ele>
        <time>2011-01-09T09:03:39Z</time>
      </trkpt>
      <trkpt lat="48.80523" lon="2.25902">
        <ele>112.61</ele>
        <time>2011-01-09T09:03:44Z</time>
      </trkpt>
      <trkpt lat="48.80535" lon="2.25905">
        <ele>112.13</ele>
        <time>2011-01-09T09:03:49Z</time>
      </trkpt>
      <trkpt lat="48.80542" lon="2.2591">
        <ele>112.13</ele>
        <time>2011-01-09T09:03:52Z</time>
      </trkpt>
      <trkpt lat="48.80569" lon="2.25916">
        <ele>111.17</ele>
        <time>2011-01-09T09:04:04Z</time>
      </trkpt>
      <trkpt lat="48.80586" lon="2.25913">
        <ele>110.21</ele>
        <time>2011-01-09T09:04:11Z</time>
      </trkpt>
      <trkpt lat="48.80617" lon="2.25911">
        <ele>109.25</ele>
        <time>2011-01-09T09:04:24Z</time>
      </trkpt>
      <trkpt lat="48.80645" lon="2.25911">
        <ele>108.77</ele>
        <time>2011-01-09T09:04:35Z</time>
      </trkpt>
      <trkpt lat="48.80657" lon="2.25903">
        <ele>108.29</ele>
        <time>2011-01-09T09:04:40Z</time>
      </trkpt>
      <trkpt lat="48.80669" lon="2.25898">
        <ele>107.81</ele>
        <time>2011-01-09T09:04:44Z</time>
      </trkpt>
      <trkpt lat="48.80704" lon="2.25887">
        <ele>106.36</ele>
        <time>2011-01-09T09:04:57Z</time>
      </trkpt>
      <trkpt lat="48.80735" lon="2.25884">
        <ele>104.92</ele>
        <time>2011-01-09T09:05:07Z</time>
      </trkpt>
      <trkpt lat="48.80756" lon="2.25879">
        <ele>103.48</ele>
        <time>2011-01-09T09:05:16Z</time>
      </trkpt>
      <trkpt lat="48.8079" lon="2.25871">
        <ele>102.52</ele>
        <time>2011-01-09T09:05:28Z</time>
      </trkpt>
      <trkpt lat="48.8082" lon="2.25867">
        <ele>102.04</ele>
        <time>2011-01-09T09:05:39Z</time>
      </trkpt>
      <trkpt lat="48.80851" lon="2.25858">
        <ele>101.08</ele>
        <time>2011-01-09T09:05:51Z</time>
      </trkpt>
      <trkpt lat="48.80884" lon="2.25856">
        <ele>99.63</ele>
        <time>2011-01-09T09:06:03Z</time>
      </trkpt>
      <trkpt lat="48.80904" lon="2.25845">
        <ele>98.67</ele>
        <time>2011-01-09T09:06:11Z</time>
      </trkpt>
      <trkpt lat="48.80914" lon="2.25846">
        <ele>98.19</ele>
        <time>2011-01-09T09:06:15Z</time>
      </trkpt>
      <trkpt lat="48.80925" lon="2.25851">
        <ele>97.71</ele>
        <time>2011-01-09T09:06:19Z</time>
      </trkpt>
      <trkpt lat="48.80944" lon="2.25855">
        <ele>96.27</ele>
        <time>2011-01-09T09:06:27Z</time>
      </trkpt>
      <trkpt lat="48.80974" lon="2.25846">
        <ele>95.79</ele>
        <time>2011-01-09T09:06:38Z</time>
      </trkpt>
      <trkpt lat="48.81002" lon="2.25829">
        <ele>94.35</ele>
        <time>2011-01-09T09:06:50Z</time>
      </trkpt>
      <trkpt lat="48.81038" lon="2.25825">
        <ele>92.9</ele>
        <time>2011-01-09T09:07:01Z</time>
      </trkpt>
      <trkpt lat="48.81041" lon="2.25825">
        <ele>92.9</ele>
        <time>2011-01-09T09:07:02Z</time>
      </trkpt>
      <trkpt lat="48.8107" lon="2.25826">
        <ele>91.94</ele>
        <time>2011-01-09T09:07:12Z</time>
      </trkpt>
      <trkpt lat="48.81099" lon="2.25821">
        <ele>90.02</ele>
        <time>2011-01-09T09:07:23Z</time>
      </trkpt>
      <trkpt lat="48.81124" lon="2.25816">
        <ele>89.54</ele>
        <time>2011-01-09T09:07:32Z</time>
      </trkpt>
      <trkpt lat="48.81158" lon="2.25812">
        <ele>88.58</ele>
        <time>2011-01-09T09:07:44Z</time>
      </trkpt>
      <trkpt lat="48.81184" lon="2.25811">
        <ele>88.58</ele>
        <time>2011-01-09T09:07:54Z</time>
      </trkpt>
      <trkpt lat="48.81209" lon="2.25807">
        <ele>87.14</ele>
        <time>2011-01-09T09:08:03Z</time>
      </trkpt>
      <trkpt lat="48.81238" lon="2.258">
        <ele>86.18</ele>
        <time>2011-01-09T09:08:13Z</time>
      </trkpt>
      <trkpt lat="48.81269" lon="2.25789">
        <ele>85.69</ele>
        <time>2011-01-09T09:08:25Z</time>
      </trkpt>
      <trkpt lat="48.8131" lon="2.25784">
        <ele>84.25</ele>
        <time>2011-01-09T09:08:39Z</time>
      </trkpt>
      <trkpt lat="48.81339" lon="2.25773">
        <ele>84.25</ele>
        <time>2011-01-09T09:08:51Z</time>
      </trkpt>
      <trkpt lat="48.81375" lon="2.25765">
        <ele>83.77</ele>
        <time>2011-01-09T09:09:05Z</time>
      </trkpt>
      <trkpt lat="48.81377" lon="2.25765">
        <ele>83.77</ele>
        <time>2011-01-09T09:09:06Z</time>
      </trkpt>
      <trkpt lat="48.81401" lon="2.25769">
        <ele>83.29</ele>
        <time>2011-01-09T09:09:15Z</time>
      </trkpt>
      <trkpt lat="48.81433" lon="2.2576">
        <ele>82.33</ele>
        <time>2011-01-09T09:09:26Z</time>
      </trkpt>
      <trkpt lat="48.81455" lon="2.25757">
        <ele>81.85</ele>
        <time>2011-01-09T09:09:35Z</time>
      </trkpt>
      <trkpt lat="48.81473" lon="2.25768">
        <ele>81.37</ele>
        <time>2011-01-09T09:09:43Z</time>
      </trkpt>
      <trkpt lat="48.81504" lon="2.25759">
        <ele>80.89</ele>
        <time>2011-01-09T09:09:54Z</time>
      </trkpt>
      <trkpt lat="48.81533" lon="2.25736">
        <ele>79.45</ele>
        <time>2011-01-09T09:10:06Z</time>
      </trkpt>
      <trkpt lat="48.81551" lon="2.25698">
        <ele>78.97</ele>
        <time>2011-01-09T09:10:18Z</time>
      </trkpt>
      <trkpt lat="48.81559" lon="2.2566">
        <ele>78</ele>
        <time>2011-01-09T09:10:29Z</time>
      </trkpt>
      <trkpt lat="48.81567" lon="2.25625">
        <ele>77.04</ele>
        <time>2011-01-09T09:10:38Z</time>
      </trkpt>
      <trkpt lat="48.81588" lon="2.25599">
        <ele>74.16</ele>
        <time>2011-01-09T09:10:49Z</time>
      </trkpt>
      <trkpt lat="48.8162" lon="2.25573">
        <ele>71.76</ele>
        <time>2011-01-09T09:11:02Z</time>
      </trkpt>
      <trkpt lat="48.8165" lon="2.25562">
        <ele>70.79</ele>
        <time>2011-01-09T09:11:14Z</time>
      </trkpt>
      <trkpt lat="48.81675" lon="2.25551">
        <ele>68.87</ele>
        <time>2011-01-09T09:11:24Z</time>
      </trkpt>
      <trkpt lat="48.81681" lon="2.25549">
        <ele>67.91</ele>
        <time>2011-01-09T09:11:26Z</time>
      </trkpt>
      <trkpt lat="48.81704" lon="2.2554">
        <ele>64.55</ele>
        <time>2011-01-09T09:11:35Z</time>
      </trkpt>
      <trkpt lat="48.8173" lon="2.25535">
        <ele>62.62</ele>
        <time>2011-01-09T09:11:47Z</time>
      </trkpt>
      <trkpt lat="48.81733" lon="2.25532">
        <ele>62.62</ele>
        <time>2011-01-09T09:11:50Z</time>
      </trkpt>
      <trkpt lat="48.81733" lon="2.25532">
        <ele>62.62</ele>
        <time>2011-01-09T09:11:52Z</time>
      </trkpt>
      <trkpt lat="48.81733" lon="2.25537">
        <ele>63.1</ele>
        <time>2011-01-09T09:11:55Z</time>
      </trkpt>
      <trkpt lat="48.81729" lon="2.25538">
        <ele>63.1</ele>
        <time>2011-01-09T09:12:07Z</time>
      </trkpt>
      <trkpt lat="48.81736" lon="2.25542">
        <ele>63.1</ele>
        <time>2011-01-09T09:12:26Z</time>
      </trkpt>
      <trkpt lat="48.81735" lon="2.25538">
        <ele>62.14</ele>
        <time>2011-01-09T09:14:12Z</time>
      </trkpt>
      <trkpt lat="48.81735" lon="2.25538">
        <ele>62.62</ele>
        <time>2011-01-09T09:15:42Z</time>
      </trkpt>
      <trkpt lat="48.81732" lon="2.25541">
        <ele>65.03</ele>
        <time>2011-01-09T09:16:49Z</time>
      </trkpt>
      <trkpt lat="48.81731" lon="2.25536">
        <ele>65.03</ele>
        <time>2011-01-09T09:17:01Z</time>
      </trkpt>
      <trkpt lat="48.81733" lon="2.25537">
        <ele>65.51</ele>
        <time>2011-01-09T09:18:04Z</time>
      </trkpt>
      <trkpt lat="48.81738" lon="2.25541">
        <ele>65.03</ele>
        <time>2011-01-09T09:18:51Z</time>
      </trkpt>
      <trkpt lat="48.81739" lon="2.25542">
        <ele>64.55</ele>
        <time>2011-01-09T09:18:53Z</time>
      </trkpt>
      <trkpt lat="48.81745" lon="2.25567">
        <ele>64.07</ele>
        <time>2011-01-09T09:19:07Z</time>
      </trkpt>
      <trkpt lat="48.81747" lon="2.25578">
        <ele>63.58</ele>
        <time>2011-01-09T09:19:13Z</time>
      </trkpt>
      <trkpt lat="48.81752" lon="2.25604">
        <ele>63.1</ele>
        <time>2011-01-09T09:19:26Z</time>
      </trkpt>
      <trkpt lat="48.8176" lon="2.2562">
        <ele>62.14</ele>
        <time>2011-01-09T09:19:36Z</time>
      </trkpt>
      <trkpt lat="48.81766" lon="2.25634">
        <ele>61.66</ele>
        <time>2011-01-09T09:19:43Z</time>
      </trkpt>
      <trkpt lat="48.81769" lon="2.25635">
        <ele>61.66</ele>
        <time>2011-01-09T09:19:45Z</time>
      </trkpt>
      <trkpt lat="48.81779" lon="2.25627">
        <ele>61.66</ele>
        <time>2011-01-09T09:19:54Z</time>
      </trkpt>
    </trkseg>
  </trk>
</gpx>